NOAA Web Site Link Tides and Currents Home Page Transparent placeholder image

PORTS® Data Listing: 8531680 Sandy Hook, NJ

CO-OPS RAW PORTS DATA

************************      PRELIMINARY DATA      ************************** 

     THIS RAW DATA HAS NOT BEEN SUBJECT TO THE NATIONAL OCEAN SERVICE'S        
     QUALITY CONTROL OR QUALITY ASSURANCE PROCEDURES AND DOES NOT MEET         
     THE CRITERIA AND STANDARDS OF OFFICIAL NATIONAL OCEAN SERVICE             
     DATA.  IT IS RELEASED FOR LIMITED PUBLIC USE AS PRELIMINARY DATA TO       
     BE USED ONLY WITH APPROPRIATE CAUTION.                                    

************************      PRELIMINARY DATA      ************************** 


       CD   -   Calendar date
       T    -   Time
       TZ   -   Timezone
       PW   -   Predicted water level (feet above MLLW)
       OW   -   Observed water level (feet above MLLW)
       WS   -   Wind speed (knots)
       WD   -   Wind direction (degrees true)
       WG   -   Wind gust (knots)
       AT   -   Air temperature (degrees farenheit)
       WT   -   Water temperature (degrees farenheit)
       AP   -   Air pressure (millibars)
       SA   -   Salinty (PSU - Practical Salinity Units)
       SG   -   Specific gravity
       RH   -   Relative humidity
       AG   -   Air gap (feet)
       VI   -   Visibility (nautical miles)

       ** NOTE **
       A variable that has its data fields filled with "9"s, indicates that
       data was not collected for that sample period.
       **********


STATION NAME: Sandy Hook (8531680)
****************************************************************************************************
    CD       T    TZ    PW     OW    WS   WD   WG    AT    WT    AP    SA    SG     RH    AG   VI
****************************************************************************************************
2019/08/14 08:42 EDT    4.48   5.16    5   80    9  73.0  75.9 1009.6 -9.9 -9.999 -99.9 -99.99 -9.99
2019/08/14 08:48 EDT    4.42   5.10    7   71    9  72.7  76.1 1009.5 -9.9 -9.999 -99.9 -99.99 -9.99
2019/08/14 08:54 EDT    4.36   5.04    5   86    8  72.5  76.1 1009.6 -9.9 -9.999 -99.9 -99.99 -9.99
2019/08/14 09:00 EDT    4.30   4.99    5   88    8  72.7  76.3 1009.7 -9.9 -9.999 -99.9 -99.99 -9.99
2019/08/14 09:06 EDT    4.23   4.92    6   80    8  72.5  76.3 1009.7 -9.9 -9.999 -99.9 -99.99 -9.99
2019/08/14 09:12 EDT    4.16   4.82    6   89    9  72.1  76.5 1009.6 -9.9 -9.999 -99.9 -99.99 -9.99
2019/08/14 09:18 EDT    4.08   4.73    4   99    8  72.1  76.5 1009.6 -9.9 -9.999 -99.9 -99.99 -9.99
2019/08/14 09:24 EDT    4.00   4.69    6  101    8  72.3  76.5 1009.9 -9.9 -9.999 -99.9 -99.99 -9.99
2019/08/14 09:30 EDT    3.92   4.59    5   91    7  72.1  76.5 1009.9 -9.9 -9.999 -99.9 -99.99 -9.99
2019/08/14 09:36 EDT    3.83   4.48    6   81    8  72.1  76.5 1009.9 -9.9 -9.999 -99.9 -99.99 -9.99
2019/08/14 09:42 EDT    3.75   4.39    4   90    9  72.1  76.5 1009.8 -9.9 -9.999 -99.9 -99.99 -9.99
2019/08/14 09:48 EDT    3.66   4.33    7   92    9  72.3  76.5 1010.0 -9.9 -9.999 -99.9 -99.99 -9.99
2019/08/14 09:54 EDT    3.57   4.21    4  130    8  72.3  76.5 1009.7 -9.9 -9.999 -99.9 -99.99 -9.99
2019/08/14 10:00 EDT    3.47   4.15    4  113    6  72.5  76.5 1010.1 -9.9 -9.999 -99.9 -99.99 -9.99
2019/08/14 10:06 EDT    3.38   4.04    4  110    5  72.5  76.6 1010.3 -9.9 -9.999 -99.9 -99.99 -9.99
2019/08/14 10:12 EDT    3.29   3.92    4  109    5  72.3  76.6 1010.3 -9.9 -9.999 -99.9 -99.99 -9.99
2019/08/14 10:18 EDT    3.19   3.82    4  102    6  72.3  76.6 1010.2 -9.9 -9.999 -99.9 -99.99 -9.99
2019/08/14 10:24 EDT    3.09   3.72    5  106    6  72.3  76.6 1010.1 -9.9 -9.999 -99.9 -99.99 -9.99
2019/08/14 10:30 EDT    3.00   3.61    5  114    7  72.3  76.6 1010.1 -9.9 -9.999 -99.9 -99.99 -9.99
2019/08/14 10:36 EDT    2.90   3.47    5  115    7  72.5  76.6 1010.2 -9.9 -9.999 -99.9 -99.99 -9.99
2019/08/14 10:42 EDT    2.81   3.36    6   96    8  72.5  76.6 1010.2 -9.9 -9.999 -99.9 -99.99 -9.99
2019/08/14 10:48 EDT    2.71   3.22    5  104    9  72.7  76.5 1010.0 -9.9 -9.999 -99.9 -99.99 -9.99
2019/08/14 10:54 EDT    2.61   3.13    6   98   10  72.9  76.3 1010.1 -9.9 -9.999 -99.9 -99.99 -9.99
2019/08/14 11:00 EDT    2.52   2.99    6  101   10  73.0  76.1 1010.2 -9.9 -9.999 -99.9 -99.99 -9.99
2019/08/14 11:06 EDT    2.42   2.88    5  104    8  73.0  75.7 1010.2 -9.9 -9.999 -99.9 -99.99 -9.99
2019/08/14 11:12 EDT    2.33   2.81    6  104    8  73.0  75.4 1010.2 -9.9 -9.999 -99.9 -99.99 -9.99
2019/08/14 11:18 EDT    2.23   2.70    6  105    8  73.2  75.2 1010.2 -9.9 -9.999 -99.9 -99.99 -9.99
2019/08/14 11:24 EDT    2.14   2.57    6  109    9  73.4  75.0 1010.2 -9.9 -9.999 -99.9 -99.99 -9.99
2019/08/14 11:30 EDT    2.04   2.52    7  101    9  73.9  75.0 1010.2 -9.9 -9.999 -99.9 -99.99 -9.99
2019/08/14 11:36 EDT    1.95   2.44    6   97    9  73.8  75.0 1010.2 -9.9 -9.999 -99.9 -99.99 -9.99
2019/08/14 11:42 EDT    1.85   2.34    7  117    9  74.1  75.0 1010.3 -9.9 -9.999 -99.9 -99.99 -9.99
2019/08/14 11:48 EDT    1.76   2.25    6  127    9  74.3  74.8 1010.3 -9.9 -9.999 -99.9 -99.99 -9.99
2019/08/14 11:54 EDT    1.67   2.18    7  119   10  74.1  75.0 1010.4 -9.9 -9.999 -99.9 -99.99 -9.99
2019/08/14 12:00 EDT    1.58   2.07    7  124    9  73.9  74.5 1010.4 -9.9 -9.999 -99.9 -99.99 -9.99
2019/08/14 12:06 EDT    1.49   1.99    8  128   10  74.5  74.5 1010.3 -9.9 -9.999 -99.9 -99.99 -9.99
2019/08/14 12:12 EDT    1.40   1.91    8  135   11  74.7  74.3 1010.3 -9.9 -9.999 -99.9 -99.99 -9.99
2019/08/14 12:18 EDT    1.32   1.82    9  120   11  74.7  74.3 1010.3 -9.9 -9.999 -99.9 -99.99 -9.99
2019/08/14 12:24 EDT    1.24   1.74   10  117   13  74.8  74.7 1010.2 -9.9 -9.999 -99.9 -99.99 -9.99
2019/08/14 12:30 EDT    1.16   1.67   10  125   13  74.8  74.8 1010.2 -9.9 -9.999 -99.9 -99.99 -9.99
2019/08/14 12:36 EDT    1.08   1.61    8  104   11  74.8  75.0 1010.2 -9.9 -9.999 -99.9 -99.99 -9.99
2019/08/14 12:42 EDT    1.00   1.59    9  109   11  75.0  75.0 1010.3 -9.9 -9.999 -99.9 -99.99 -9.99
2019/08/14 12:48 EDT    0.93   1.54    9  110   12  74.7  75.0 1010.4 -9.9 -9.999 -99.9 -99.99 -9.99
2019/08/14 12:54 EDT    0.87   1.49    9  109   12  75.0  75.0 1010.3 -9.9 -9.999 -99.9 -99.99 -9.99
2019/08/14 13:00 EDT    0.80   1.46    8  113   11  75.4  75.2 1010.1 -9.9 -9.999 -99.9 -99.99 -9.99
2019/08/14 13:06 EDT    0.74   1.42    8  122   11  75.4  75.2 1010.1 -9.9 -9.999 -99.9 -99.99 -9.99
2019/08/14 13:12 EDT    0.69   1.40    6  117   10  75.2  75.0 1010.2 -9.9 -9.999 -99.9 -99.99 -9.99
2019/08/14 13:18 EDT    0.64   1.35    7  127   10  75.6  75.0 1010.3 -9.9 -9.999 -99.9 -99.99 -9.99
2019/08/14 13:24 EDT    0.60   1.31    8  132   11  75.2  75.0 1010.4 -9.9 -9.999 -99.9 -99.99 -9.99
2019/08/14 13:30 EDT    0.56   1.29    7  123   11  75.0  74.8 1010.4 -9.9 -9.999 -99.9 -99.99 -9.99
2019/08/14 13:36 EDT    0.54   1.22    7  126   10  75.4  74.8 1010.4 -9.9 -9.999 -99.9 -99.99 -9.99
2019/08/14 13:42 EDT    0.51   1.22    8  114   10  75.7  74.8 1010.3 -9.9 -9.999 -99.9 -99.99 -9.99
2019/08/14 13:48 EDT    0.50   1.20    7  129   10  75.6  75.0 1010.3 -9.9 -9.999 -99.9 -99.99 -9.99
2019/08/14 13:54 EDT    0.49   1.21    7  119   10  75.0  75.0 1010.4 -9.9 -9.999 -99.9 -99.99 -9.99
2019/08/14 14:00 EDT    0.49   1.20    7  109    9  75.0  75.0 1010.5 -9.9 -9.999 -99.9 -99.99 -9.99
2019/08/14 14:06 EDT    0.49   1.18    8  115   10  75.4  75.0 1010.4 -9.9 -9.999 -99.9 -99.99 -9.99
2019/08/14 14:12 EDT    0.51   1.20    8  125   11  75.0  74.8 1010.4 -9.9 -9.999 -99.9 -99.99 -9.99
2019/08/14 14:18 EDT    0.53   1.24    8  121   10  74.7  74.8 1010.3 -9.9 -9.999 -99.9 -99.99 -9.99
2019/08/14 14:24 EDT    0.55   1.28    7  126   11  74.7  74.8 1010.4 -9.9 -9.999 -99.9 -99.99 -9.99
2019/08/14 14:30 EDT    0.59   1.30    9  135   11  75.2  74.8 1010.6 -9.9 -9.999 -99.9 -99.99 -9.99
2019/08/14 14:36 EDT    0.63   1.31    9  128   12  74.7  75.0 1010.6 -9.9 -9.999 -99.9 -99.99 -9.99
2019/08/14 14:42 EDT    0.68   1.37    9  129   12  74.8  75.2 1010.5 -9.9 -9.999 -99.9 -99.99 -9.99
2019/08/14 14:48 EDT    0.74   1.42   10  129   13  74.7  75.2 1010.5 -9.9 -9.999 -99.9 -99.99 -9.99
2019/08/14 14:54 EDT    0.80   1.46   10  119   14  75.0  75.4 1010.5 -9.9 -9.999 -99.9 -99.99 -9.99
2019/08/14 15:00 EDT    0.87   1.51    7  117   12  74.3  75.4 1010.5 -9.9 -9.999 -99.9 -99.99 -9.99
2019/08/14 15:06 EDT    0.95   1.56    8  119   11  74.5  75.4 1010.6 -9.9 -9.999 -99.9 -99.99 -9.99
2019/08/14 15:12 EDT    1.03   1.65    9  117   12  74.1  75.4 1010.6 -9.9 -9.999 -99.9 -99.99 -9.99
2019/08/14 15:18 EDT    1.11   1.72   10  133   13  74.1  75.4 1010.6 -9.9 -9.999 -99.9 -99.99 -9.99
2019/08/14 15:24 EDT    1.21   1.81    9  114   11  74.1  75.4 1010.5 -9.9 -9.999 -99.9 -99.99 -9.99
2019/08/14 15:30 EDT    1.30   1.89   10  123   11  74.3  75.4 1010.5 -9.9 -9.999 -99.9 -99.99 -9.99
2019/08/14 15:36 EDT    1.40   2.00    8  122   12  74.3  75.4 1010.5 -9.9 -9.999 -99.9 -99.99 -9.99
2019/08/14 15:42 EDT    1.51   2.10   10   99   13  74.3  75.4 1010.5 -9.9 -9.999 -99.9 -99.99 -9.99
2019/08/14 15:48 EDT    1.61   2.23    9  127   12  73.9  75.4 1010.6 -9.9 -9.999 -99.9 -99.99 -9.99
2019/08/14 15:54 EDT    1.72   2.35    8  107   12  73.6  75.4 1010.8 -9.9 -9.999 -99.9 -99.99 -9.99
2019/08/14 16:00 EDT    1.83   2.45    9  108   12  73.8  75.4 1010.8 -9.9 -9.999 -99.9 -99.99 -9.99
2019/08/14 16:06 EDT    1.95   2.60    9  121   12  73.6  75.4 1010.7 -9.9 -9.999 -99.9 -99.99 -9.99
2019/08/14 16:12 EDT    2.06   2.69    8  128   12  73.6  75.4 1010.8 -9.9 -9.999 -99.9 -99.99 -9.99
2019/08/14 16:18 EDT    2.18   2.84    9  125   11  73.8  75.2 1010.8 -9.9 -9.999 -99.9 -99.99 -9.99
2019/08/14 16:24 EDT    2.30   2.97    9  107   12  73.2  75.0 1010.9 -9.9 -9.999 -99.9 -99.99 -9.99
2019/08/14 16:30 EDT    2.42   3.08    9  118   11  73.0  74.7 1010.9 -9.9 -9.999 -99.9 -99.99 -9.99
2019/08/14 16:36 EDT    2.54   3.19    7  109   10  72.9  74.5 1010.9 -9.9 -9.999 -99.9 -99.99 -9.99
2019/08/14 16:42 EDT    2.66   3.35    8  109   10  73.4  74.5 1011.0 -9.9 -9.999 -99.9 -99.99 -9.99
2019/08/14 16:48 EDT    2.78   3.47    8  124   10  72.9  74.3 1011.1 -9.9 -9.999 -99.9 -99.99 -9.99
2019/08/14 16:54 EDT    2.90   3.59    7  101    9  73.0  74.3 1011.3 -9.9 -9.999 -99.9 -99.99 -9.99
2019/08/14 17:00 EDT    3.02   3.76    6  101    8  72.9  74.1 1011.3 -9.9 -9.999 -99.9 -99.99 -9.99
2019/08/14 17:06 EDT    3.14   3.89    6   64    8  73.0  73.9 1011.4 -9.9 -9.999 -99.9 -99.99 -9.99
2019/08/14 17:12 EDT    3.26   4.01    6   65    9  73.2  73.9 1011.5 -9.9 -9.999 -99.9 -99.99 -9.99
2019/08/14 17:18 EDT    3.37   4.13    7   50    9  73.2  73.8 1011.6 -9.9 -9.999 -99.9 -99.99 -9.99
2019/08/14 17:24 EDT    3.49   4.26    6   45    8  73.0  73.6 1011.7 -9.9 -9.999 -99.9 -99.99 -9.99
2019/08/14 17:30 EDT    3.60   4.39    4   68    8  72.9  73.6 1011.7 -9.9 -9.999 -99.9 -99.99 -9.99
2019/08/14 17:36 EDT    3.72   4.46    4   53    6  72.7  73.6 1011.7 -9.9 -9.999 -99.9 -99.99 -9.99
2019/08/14 17:42 EDT    3.83   4.56    4   51    7  72.9  73.6 1011.7 -9.9 -9.999 -99.9 -99.99 -9.99
2019/08/14 17:48 EDT    3.94   4.68    5   43    8  72.9  73.6 1011.7 -9.9 -9.999 -99.9 -99.99 -9.99
2019/08/14 17:54 EDT    4.05   4.79    6   64    8  72.5  73.4 1011.7 -9.9 -9.999 -99.9 -99.99 -9.99
2019/08/14 18:00 EDT    4.16   4.85    6   52    9  72.1  73.4 1011.6 -9.9 -9.999 -99.9 -99.99 -9.99
2019/08/14 18:06 EDT    4.26   4.97    5   76    9  71.2  73.4 1011.6 -9.9 -9.999 -99.9 -99.99 -9.99
2019/08/14 18:12 EDT    4.37   5.09    4   84    7  70.9  73.4 1011.5 -9.9 -9.999 -99.9 -99.99 -9.99
2019/08/14 18:18 EDT    4.47   5.17    3   78    6  71.2  73.4 1011.6 -9.9 -9.999 -99.9 -99.99 -9.99
2019/08/14 18:24 EDT    4.56   5.25    3   76    4  71.2  73.4 1011.6 -9.9 -9.999 -99.9 -99.99 -9.99
2019/08/14 18:30 EDT    4.66   5.33    3   85    3  71.4  74.1 1011.7 -9.9 -9.999 -99.9 -99.99 -9.99
2019/08/14 18:36 EDT    4.75   5.39    5   99    6  71.4  74.3 1011.7 -9.9 -9.999 -99.9 -99.99 -9.99
2019/08/14 18:42 EDT    4.84   5.43    5   99    7  71.4  74.8 1011.5 -9.9 -9.999 -99.9 -99.99 -9.99
2019/08/14 18:48 EDT    4.92   5.49    4   93    5  71.4  74.8 1011.5 -9.9 -9.999 -99.9 -99.99 -9.99
2019/08/14 18:54 EDT    5.00   5.55    3   91    5  71.4  74.8 1011.5 -9.9 -9.999 -99.9 -99.99 -9.99
2019/08/14 19:00 EDT    5.07   5.62    4   79    5  71.2  75.2 1011.4 -9.9 -9.999 -99.9 -99.99 -9.99
2019/08/14 19:06 EDT    5.14   5.69    4   50    5  71.2  75.2 1011.4 -9.9 -9.999 -99.9 -99.99 -9.99
2019/08/14 19:12 EDT    5.21   5.74    3   49    5  71.6  75.4 1011.5 -9.9 -9.999 -99.9 -99.99 -9.99
2019/08/14 19:18 EDT    5.27   5.81    2   75    4  71.6  75.4 1011.6 -9.9 -9.999 -99.9 -99.99 -9.99
2019/08/14 19:24 EDT    5.32   5.88    2   88    3  71.6  75.4 1011.5 -9.9 -9.999 -99.9 -99.99 -9.99
2019/08/14 19:30 EDT    5.37   5.91    3  115    4  71.6  75.4 1011.5 -9.9 -9.999 -99.9 -99.99 -9.99
2019/08/14 19:36 EDT    5.41   5.95    3  110    4  71.6  75.4 1011.6 -9.9 -9.999 -99.9 -99.99 -9.99
2019/08/14 19:42 EDT    5.45   5.99    3  117    4  71.6  75.0 1011.6 -9.9 -9.999 -99.9 -99.99 -9.99
2019/08/14 19:48 EDT    5.47   5.98    4  104    5  71.8  74.8 1011.5 -9.9 -9.999 -99.9 -99.99 -9.99
2019/08/14 19:54 EDT    5.49   6.01    4  100    6  71.4  75.2 1011.4 -9.9 -9.999 -99.9 -99.99 -9.99
2019/08/14 20:00 EDT    5.51   6.03    4   89    5  71.4  75.6 1011.5 -9.9 -9.999 -99.9 -99.99 -9.99
2019/08/14 20:06 EDT    5.51   6.02    4   96    7  71.6  75.6 1011.6 -9.9 -9.999 -99.9 -99.99 -9.99
2019/08/14 20:12 EDT    5.51   6.02    4   88    6  71.6  75.4 1011.6 -9.9 -9.999 -99.9 -99.99 -9.99
2019/08/14 20:18 EDT    5.51   6.05    4   83    5  71.6  75.4 1011.7 -9.9 -9.999 -99.9 -99.99 -9.99
2019/08/14 20:24 EDT    5.49   6.04    4   87    6  71.4  75.4 1011.8 -9.9 -9.999 -99.9 -99.99 -9.99
2019/08/14 20:30 EDT    5.47   5.99    4   84    5  71.4  75.4 1011.8 -9.9 -9.999 -99.9 -99.99 -9.99
2019/08/14 20:36 EDT    5.44   6.00    2   71    5  71.4  75.4 1012.0 -9.9 -9.999 -99.9 -99.99 -9.99
2019/08/14 20:42 EDT    5.40   6.00    4   89    5  71.6  75.6 1012.1 -9.9 -9.999 -99.9 -99.99 -9.99
2019/08/14 20:48 EDT    5.35   5.94    4   87    7  71.6  75.6 1011.9 -9.9 -9.999 -99.9 -99.99 -9.99
2019/08/14 20:54 EDT    5.30   5.90    4   87    6  71.4  75.7 1011.9 -9.9 -9.999 -99.9 -99.99 -9.99
2019/08/14 21:00 EDT    5.24   5.89    3   92    5  71.6  75.7 1012.1 -9.9 -9.999 -99.9 -99.99 -9.99
2019/08/14 21:06 EDT    5.18   5.84    4   98    6  71.6  75.7 1012.2 -9.9 -9.999 -99.9 -99.99 -9.99
2019/08/14 21:12 EDT    5.11   5.79    4  106    5  71.6  75.9 1012.3 -9.9 -9.999 -99.9 -99.99 -9.99
2019/08/14 21:18 EDT    5.04   5.72    4  118    6  71.6  75.9 1012.4 -9.9 -9.999 -99.9 -99.99 -9.99
2019/08/14 21:24 EDT    4.96   5.66    4  109    5  71.8  75.9 1012.4 -9.9 -9.999 -99.9 -99.99 -9.99
2019/08/14 21:30 EDT    4.87   5.57    3  112    4  71.6  75.9 1012.6 -9.9 -9.999 -99.9 -99.99 -9.99
2019/08/14 21:36 EDT    4.78   5.49    2  124    4  71.6  75.9 1012.7 -9.9 -9.999 -99.9 -99.99 -9.99
2019/08/14 21:42 EDT    4.69   5.42    2  120    3  71.8  75.9 1013.1 -9.9 -9.999 -99.9 -99.99 -9.99
2019/08/14 21:48 EDT    4.59   5.30    3   82    4  72.0  76.1 1013.0 -9.9 -9.999 -99.9 -99.99 -9.99
2019/08/14 21:54 EDT    4.49   5.19    4   90    5  71.8  76.3 1012.9 -9.9 -9.999 -99.9 -99.99 -9.99
2019/08/14 22:00 EDT    4.38   5.11    4   75    6  71.8  76.1 1012.6 -9.9 -9.999 -99.9 -99.99 -9.99
2019/08/14 22:06 EDT    4.28   5.02    4   81    4  71.8  76.1 1012.6 -9.9 -9.999 -99.9 -99.99 -9.99
2019/08/14 22:12 EDT    4.17   4.91    2   79    5  72.0  76.3 1012.7 -9.9 -9.999 -99.9 -99.99 -9.99
2019/08/14 22:18 EDT    4.06   4.82    2   93    3  72.0  76.3 1013.0 -9.9 -9.999 -99.9 -99.99 -9.99
2019/08/14 22:24 EDT    3.95   4.71    3  118    4  72.0  76.3 1013.0 -9.9 -9.999 -99.9 -99.99 -9.99
2019/08/14 22:30 EDT    3.83   4.62    2  138    4  72.0  76.3 1013.0 -9.9 -9.999 -99.9 -99.99 -9.99
2019/08/14 22:36 EDT    3.72   4.50    2  122    3  72.0  76.3 1013.3 -9.9 -9.999 -99.9 -99.99 -9.99
2019/08/14 22:42 EDT    3.60   4.37    1  110    2  72.0  76.3 1013.4 -9.9 -9.999 -99.9 -99.99 -9.99
2019/08/14 22:48 EDT    3.49   4.25    2   84    2  72.0  75.9 1013.4 -9.9 -9.999 -99.9 -99.99 -9.99
2019/08/14 22:54 EDT    3.37   4.16    2   69    3  72.0  75.9 1013.5 -9.9 -9.999 -99.9 -99.99 -9.99
2019/08/14 23:00 EDT    3.25   4.04    3   93    4  72.0  75.9 1013.5 -9.9 -9.999 -99.9 -99.99 -9.99
2019/08/14 23:06 EDT    3.14   3.91    3  103    4  72.0  75.7 1013.5 -9.9 -9.999 -99.9 -99.99 -9.99
2019/08/14 23:12 EDT    3.02   3.83    4  107    4  72.1  75.7 1013.5 -9.9 -9.999 -99.9 -99.99 -9.99
2019/08/14 23:18 EDT    2.90   3.72    3   91    4  72.0  75.9 1013.5 -9.9 -9.999 -99.9 -99.99 -9.99
2019/08/14 23:24 EDT    2.78   3.58    3   92    4  71.8  75.9 1013.6 -9.9 -9.999 -99.9 -99.99 -9.99
2019/08/14 23:30 EDT    2.67   3.48    3  115    4  72.0  75.9 1013.6 -9.9 -9.999 -99.9 -99.99 -9.99
2019/08/14 23:36 EDT    2.55   3.38    4  104    5  72.0  76.1 1013.7 -9.9 -9.999 -99.9 -99.99 -9.99
2019/08/14 23:42 EDT    2.43   3.25    3   77    4  71.8  76.1 1013.7 -9.9 -9.999 -99.9 -99.99 -9.99
2019/08/14 23:48 EDT    2.32   3.10    4   73    5  71.8  76.3 1013.7 -9.9 -9.999 -99.9 -99.99 -9.99
2019/08/14 23:54 EDT    2.20   3.02    4   76    6  71.8  76.3 1013.6 -9.9 -9.999 -99.9 -99.99 -9.99
2019/08/15 00:00 EDT    2.09   2.91    4   88    6  71.8  76.3 1013.5 -9.9 -9.999 -99.9 -99.99 -9.99
2019/08/15 00:06 EDT    1.97   2.80    5   93    6  71.8  76.3 1013.6 -9.9 -9.999 -99.9 -99.99 -9.99
2019/08/15 00:12 EDT    1.86   2.66    4  104    6  71.8  76.3 1013.6 -9.9 -9.999 -99.9 -99.99 -9.99
2019/08/15 00:18 EDT    1.75   2.57    5  106    6  71.8  76.3 1013.6 -9.9 -9.999 -99.9 -99.99 -9.99
2019/08/15 00:24 EDT    1.64   2.46    4  100    7  71.6  76.3 1013.7 -9.9 -9.999 -99.9 -99.99 -9.99
2019/08/15 00:30 EDT    1.53   2.35    4   97    5  71.6  76.3 1013.8 -9.9 -9.999 -99.9 -99.99 -9.99
2019/08/15 00:36 EDT    1.42   2.22    4  103    6  71.6  76.3 1013.8 -9.9 -9.999 -99.9 -99.99 -9.99
2019/08/15 00:42 EDT    1.32   2.12    4   90    5  71.6  76.3 1013.7 -9.9 -9.999 -99.9 -99.99 -9.99
2019/08/15 00:48 EDT    1.21   2.04    3   94    5  71.6  76.3 1013.8 -9.9 -9.999 -99.9 -99.99 -9.99
2019/08/15 00:54 EDT    1.11   1.93    4   91    5  71.4  76.3 1013.8 -9.9 -9.999 -99.9 -99.99 -9.99
2019/08/15 01:00 EDT    1.01   1.82    3   99    5  71.4  76.3 1013.7 -9.9 -9.999 -99.9 -99.99 -9.99
2019/08/15 01:06 EDT    0.92   1.76    3  102    4  71.4  76.3 1013.8 -9.9 -9.999 -99.9 -99.99 -9.99
2019/08/15 01:12 EDT    0.83   1.67    2   82    4  71.2  76.3 1013.9 -9.9 -9.999 -99.9 -99.99 -9.99
2019/08/15 01:18 EDT    0.74   1.54    3   98    4  71.2  76.1 1013.9 -9.9 -9.999 -99.9 -99.99 -9.99
2019/08/15 01:24 EDT    0.66   1.48    3   90    4  71.2  76.1 1013.9 -9.9 -9.999 -99.9 -99.99 -9.99
2019/08/15 01:30 EDT    0.58   1.40    3   85    4  71.2  75.9 1013.9 -9.9 -9.999 -99.9 -99.99 -9.99
2019/08/15 01:36 EDT    0.51   1.30    4   88    5  71.2  75.9 1013.9 -9.9 -9.999 -99.9 -99.99 -9.99
2019/08/15 01:42 EDT    0.44   1.21    4   94    5  71.1  75.9 1014.0 -9.9 -9.999 -99.9 -99.99 -9.99
2019/08/15 01:48 EDT    0.38   1.14    3   74    5  71.4  75.9 1014.0 -9.9 -9.999 -99.9 -99.99 -9.99
2019/08/15 01:54 EDT    0.33   1.09    4   80    6  71.4  76.1 1014.0 -9.9 -9.999 -99.9 -99.99 -9.99
2019/08/15 02:00 EDT    0.28   1.02    4   78    5  71.4  76.1 1013.9 -9.9 -9.999 -99.9 -99.99 -9.99
2019/08/15 02:06 EDT    0.24   0.94    4   78    5  71.6  76.3 1014.0 -9.9 -9.999 -99.9 -99.99 -9.99
2019/08/15 02:12 EDT    0.21   0.89    4   57    6  71.4  76.1 1014.0 -9.9 -9.999 -99.9 -99.99 -9.99
2019/08/15 02:18 EDT    0.18   0.85    4   71    5  71.2  76.1 1013.9 -9.9 -9.999 -99.9 -99.99 -9.99
2019/08/15 02:24 EDT    0.16   0.80    4   71    6  71.2  75.9 1013.9 -9.9 -9.999 -99.9 -99.99 -9.99
2019/08/15 02:30 EDT    0.15   0.76    4   54    5  71.2  75.9 1014.0 -9.9 -9.999 -99.9 -99.99 -9.99
2019/08/15 02:36 EDT    0.15   0.74    4   64    5  71.1  75.7 1014.0 -9.9 -9.999 -99.9 -99.99 -9.99
2019/08/15 02:42 EDT    0.16   0.73    3   65    5  70.9  75.4 1013.9 -9.9 -9.999 -99.9 -99.99 -9.99
2019/08/15 02:48 EDT    0.17   0.71    5   78    6  70.7  74.8 1014.0 -9.9 -9.999 -99.9 -99.99 -9.99
2019/08/15 02:54 EDT    0.19   0.70    5   77    7  70.7  74.8 1014.0 -9.9 -9.999 -99.9 -99.99 -9.99
2019/08/15 03:00 EDT    0.22   0.73    4   68    7  70.7  74.7 1014.0 -9.9 -9.999 -99.9 -99.99 -9.99
2019/08/15 03:06 EDT    0.25   0.75    4   62    7  70.7  74.5 1014.0 -9.9 -9.999 -99.9 -99.99 -9.99
2019/08/15 03:12 EDT    0.30   0.78    4   60    6  70.7  74.3 1014.1 -9.9 -9.999 -99.9 -99.99 -9.99
2019/08/15 03:18 EDT    0.35   0.82    6   56    7  70.5  73.9 1014.1 -9.9 -9.999 -99.9 -99.99 -9.99
2019/08/15 03:24 EDT    0.40   0.91    4   51    7  70.5  73.8 1014.1 -9.9 -9.999 -99.9 -99.99 -9.99
2019/08/15 03:30 EDT    0.47   0.95    5   58    7  70.3  73.8 1014.2 -9.9 -9.999 -99.9 -99.99 -9.99
2019/08/15 03:36 EDT    0.53   1.04    5   48    8  70.3  73.9 1014.2 -9.9 -9.999 -99.9 -99.99 -9.99
2019/08/15 03:42 EDT    0.61   1.11    6   51    8  70.3  74.1 1014.1 -9.9 -9.999 -99.9 -99.99 -9.99
2019/08/15 03:48 EDT    0.69   1.19    7   57    9  70.5  74.1 1014.1 -9.9 -9.999 -99.9 -99.99 -9.99
2019/08/15 03:54 EDT    0.78   1.32    5   52    7  70.5  74.3 1014.2 -9.9 -9.999 -99.9 -99.99 -9.99
2019/08/15 04:00 EDT    0.86   1.40    6   51    8  70.5  74.1 1014.2 -9.9 -9.999 -99.9 -99.99 -9.99
2019/08/15 04:06 EDT    0.96   1.52    6   47    9  70.5  74.3 1014.2 -9.9 -9.999 -99.9 -99.99 -9.99
2019/08/15 04:12 EDT    1.06   1.60    5   39    7  70.7  74.1 1014.2 -9.9 -9.999 -99.9 -99.99 -9.99
2019/08/15 04:18 EDT    1.16   1.74    4   38    6  70.5  74.1 1014.2 -9.9 -9.999 -99.9 -99.99 -9.99
2019/08/15 04:24 EDT    1.26   1.88    4   35    7  70.5  73.9 1014.1 -9.9 -9.999 -99.9 -99.99 -9.99
2019/08/15 04:30 EDT    1.37   1.98    5   37    7  70.5  73.9 1014.1 -9.9 -9.999 -99.9 -99.99 -9.99
2019/08/15 04:36 EDT    1.47   2.09    4   39    6  70.7  74.1 1014.1 -9.9 -9.999 -99.9 -99.99 -9.99
2019/08/15 04:42 EDT    1.58   2.23    4   35    6  70.5  74.3 1014.1 -9.9 -9.999 -99.9 -99.99 -9.99
2019/08/15 04:48 EDT    1.69   2.35    4   31    6  70.7  74.5 1014.1 -9.9 -9.999 -99.9 -99.99 -9.99
2019/08/15 04:54 EDT    1.81   2.47    4   35    6  70.9  74.7 1014.1 -9.9 -9.999 -99.9 -99.99 -9.99
2019/08/15 05:00 EDT    1.92   2.60    4   38    7  70.9  74.7 1014.1 -9.9 -9.999 -99.9 -99.99 -9.99
2019/08/15 05:06 EDT    2.03   2.70    4   31    5  71.1  74.1 1014.1 -9.9 -9.999 -99.9 -99.99 -9.99
2019/08/15 05:12 EDT    2.14   2.84    3   40    5  71.1  73.8 1014.2 -9.9 -9.999 -99.9 -99.99 -9.99
2019/08/15 05:18 EDT    2.26   2.96    3   43    5  71.1  73.8 1014.3 -9.9 -9.999 -99.9 -99.99 -9.99
2019/08/15 05:24 EDT    2.37   3.11    4   53    7  71.1  73.8 1014.3 -9.9 -9.999 -99.9 -99.99 -9.99
2019/08/15 05:30 EDT    2.48   3.20    4   52    6  71.2  73.8 1014.3 -9.9 -9.999 -99.9 -99.99 -9.99
2019/08/15 05:36 EDT    2.60   3.37    4   48    5  71.2  73.8 1014.4 -9.9 -9.999 -99.9 -99.99 -9.99
2019/08/15 05:42 EDT    2.71   3.48    4   58    5  71.2  73.8 1014.4 -9.9 -9.999 -99.9 -99.99 -9.99
2019/08/15 05:48 EDT    2.82   3.62    4   47    6  71.2  73.8 1014.5 -9.9 -9.999 -99.9 -99.99 -9.99
2019/08/15 05:54 EDT    2.93   3.73    4   39    6  71.2  73.8 1014.5 -9.9 -9.999 -99.9 -99.99 -9.99
2019/08/15 06:00 EDT    3.04   3.83    4   43    7  71.2  73.8 1014.6 -9.9 -9.999 -99.9 -99.99 -9.99
2019/08/15 06:06 EDT    3.14   3.94    6   46    8  71.2  73.8 1014.6 -9.9 -9.999 -99.9 -99.99 -9.99
2019/08/15 06:12 EDT    3.25   4.05    5   49    8  71.2  73.8 1014.6 -9.9 -9.999 -99.9 -99.99 -9.99
2019/08/15 06:18 EDT    3.35   4.14    5   47    8  71.1  73.8 1014.7 -9.9 -9.999 -99.9 -99.99 -9.99
2019/08/15 06:24 EDT    3.46   4.21    5   51    8  71.2  73.8 1014.7 -9.9 -9.999 -99.9 -99.99 -9.99
2019/08/15 06:30 EDT    3.56   4.31    5   52    8  71.2  73.8 1014.8 -9.9 -9.999 -99.9 -99.99 -9.99
2019/08/15 06:36 EDT    3.66   4.39    5   59    8  71.4  73.8 1014.9 -9.9 -9.999 -99.9 -99.99 -9.99
2019/08/15 06:42 EDT    3.75   4.46    6   56    9  71.4  73.8 1015.0 -9.9 -9.999 -99.9 -99.99 -9.99
2019/08/15 06:48 EDT    3.85   4.53    6   63   10  71.4  73.8 1015.1 -9.9 -9.999 -99.9 -99.99 -9.99
2019/08/15 06:54 EDT    3.94   4.62    7   61    9  71.2  73.8 1015.1 -9.9 -9.999 -99.9 -99.99 -9.99
2019/08/15 07:00 EDT    4.02   4.69    7   62   10  71.4  73.8 1015.1 -9.9 -9.999 -99.9 -99.99 -9.99
2019/08/15 07:06 EDT    4.11   4.77    6   73   10  71.6  73.8 1015.1 -9.9 -9.999 -99.9 -99.99 -9.99
2019/08/15 07:12 EDT    4.19   4.84    7   68   10  71.8  73.8 1015.2 -9.9 -9.999 -99.9 -99.99 -9.99
2019/08/15 07:18 EDT    4.27   4.91    6   75    9  71.8  73.9 1015.2 -9.9 -9.999 -99.9 -99.99 -9.99
2019/08/15 07:24 EDT    4.34   4.96    7   65    9  72.0  73.9 1015.3 -9.9 -9.999 -99.9 -99.99 -9.99
2019/08/15 07:30 EDT    4.41   5.03    5   71    9  72.1  73.9 1015.4 -9.9 -9.999 -99.9 -99.99 -9.99
2019/08/15 07:36 EDT    4.47   5.11    6   75    9  72.1  73.8 1015.4 -9.9 -9.999 -99.9 -99.99 -9.99
2019/08/15 07:42 EDT    4.53   5.12    7   77   10  72.0  73.8 1015.4 -9.9 -9.999 -99.9 -99.99 -9.99
2019/08/15 07:48 EDT    4.58   5.17    7   78   10  71.8  73.6 1015.4 -9.9 -9.999 -99.9 -99.99 -9.99
2019/08/15 07:54 EDT    4.63   5.26    8   82   10  71.8  73.6 1015.5 -9.9 -9.999 -99.9 -99.99 -9.99
2019/08/15 08:00 EDT    4.67   5.23    8   78   12  71.6  73.6 1015.5 -9.9 -9.999 -99.9 -99.99 -9.99
2019/08/15 08:06 EDT    4.70   5.30    8   81   12  71.6  73.4 1015.6 -9.9 -9.999 -99.9 -99.99 -9.99
2019/08/15 08:12 EDT    4.73   5.34    8   81   12  71.8  73.4 1015.7 -9.9 -9.999 -99.9 -99.99 -9.99
2019/08/15 08:18 EDT    4.75   5.38    9   77   11  71.8  73.2 1015.8 -9.9 -9.999 -99.9 -99.99 -9.99
2019/08/15 08:24 EDT    4.77   5.39    6   86   12  71.6  73.2 1015.9 -9.9 -9.999 -99.9 -99.99 -9.99
2019/08/15 08:30 EDT    4.78   5.44    8   82   12  72.1  73.2 1015.8 -9.9 -9.999 -99.9 -99.99 -9.99
2019/08/15 08:36 EDT    4.78   5.47    8   87   10  72.0  73.2 1015.8 -9.9 -9.999 -99.9 -99.99 -9.99
2019/08/15 08:42 EDT    4.77   5.45    7   89   11  72.0  73.2 1015.8 -9.9 -9.999 -99.9 -99.99 -9.99
2019/08/15 08:48 EDT    4.76   5.49    9   97   12  72.3  73.2 1015.8 -9.9 -9.999 -99.9 -99.99 -9.99
2019/08/15 08:54 EDT    4.74   5.49    8   99   10  72.0  73.2 1015.9 -9.9 -9.999 -99.9 -99.99 -9.99
2019/08/15 09:00 EDT    4.72   5.46    9  103   11  72.0  73.2 1016.0 -9.9 -9.999 -99.9 -99.99 -9.99
2019/08/15 09:06 EDT    4.68   5.41    9   85   11  71.6  73.2 1016.1 -9.9 -9.999 -99.9 -99.99 -9.99
2019/08/15 09:12 EDT    4.64   5.43    7   92   11  71.6  73.2 1016.2 -9.9 -9.999 -99.9 -99.99 -9.99
2019/08/15 09:18 EDT    4.60   5.40    8   99   10  71.8  73.2 1016.3 -9.9 -9.999 -99.9 -99.99 -9.99
2019/08/15 09:24 EDT    4.55   5.30    6  100    9  71.8  73.2 1016.3 -9.9 -9.999 -99.9 -99.99 -9.99
2019/08/15 09:30 EDT    4.49   5.29    6   94    9  72.1  73.2 1016.4 -9.9 -9.999 -99.9 -99.99 -9.99
2019/08/15 09:36 EDT    4.43   5.25    6   96    9  72.0  73.2 1016.6 -9.9 -9.999 -99.9 -99.99 -9.99
2019/08/15 09:42 EDT    4.36   5.15    7  101   11  72.0  73.2 1016.6 -9.9 -9.999 -99.9 -99.99 -9.99
2019/08/15 09:48 EDT    4.29   5.12    6  120   12  72.0  73.2 1016.6 -9.9 -9.999 -99.9 -99.99 -9.99
2019/08/15 09:54 EDT    4.21   5.04    7  137   11  72.0  73.2 1016.6 -9.9 -9.999 -99.9 -99.99 -9.99
2019/08/15 10:00 EDT    4.13   4.95    5  121    9  71.8  73.2 1016.6 -9.9 -9.999 -99.9 -99.99 -9.99
2019/08/15 10:06 EDT    4.05   4.87    6  107    8  72.3  73.2 1016.7 -9.9 -9.999 -99.9 -99.99 -9.99
2019/08/15 10:12 EDT    3.96   4.81    5  127    8  72.1  73.2 1016.8 -9.9 -9.999 -99.9 -99.99 -9.99
2019/08/15 10:18 EDT    3.87   4.72    6  122    8  72.5  73.2 1016.9 -9.9 -9.999 -99.9 -99.99 -9.99
2019/08/15 10:24 EDT    3.78   4.60    6  119    7  72.1  73.4 1016.9 -9.9 -9.999 -99.9 -99.99 -9.99
2019/08/15 10:30 EDT    3.69   4.50    6  111    9  72.3  73.4 1016.9 -9.9 -9.999 -99.9 -99.99 -9.99
2019/08/15 10:36 EDT    3.59   4.41    7  124    9  72.5  74.8 1016.9 -9.9 -9.999 -99.9 -99.99 -9.99
2019/08/15 10:42 EDT    3.50   4.27    7  116    9  72.1  75.6 1016.9 -9.9 -9.999 -99.9 -99.99 -9.99
2019/08/15 10:48 EDT    3.40   4.15    7  120   10  72.1  75.6 1016.9 -9.9 -9.999 -99.9 -99.99 -9.99
2019/08/15 10:54 EDT    3.30   4.06    7  128   11  72.7  75.7 1017.0 -9.9 -9.999 -99.9 -99.99 -9.99
2019/08/15 11:00 EDT    3.20   3.94    6  131    8  72.5  75.9 1016.9 -9.9 -9.999 -99.9 -99.99 -9.99
2019/08/15 11:06 EDT    3.10   3.83    5  126    9  73.0  75.9 1016.9 -9.9 -9.999 -99.9 -99.99 -9.99
2019/08/15 11:12 EDT    3.00   3.76    7  126   10  73.4  75.9 1016.9 -9.9 -9.999 -99.9 -99.99 -9.99
2019/08/15 11:18 EDT    2.90   3.62    8  139   10  73.2  75.9 1016.9 -9.9 -9.999 -99.9 -99.99 -9.99
2019/08/15 11:24 EDT    2.80   3.51    7  121    9  72.7  75.9 1016.9 -9.9 -9.999 -99.9 -99.99 -9.99
2019/08/15 11:30 EDT    2.70   3.41    8  133   10  73.0  75.9 1016.9 -9.9 -9.999 -99.9 -99.99 -9.99
2019/08/15 11:36 EDT    2.60   3.33    7  126   10  72.9  75.9 1016.9 -9.9 -9.999 -99.9 -99.99 -9.99
2019/08/15 11:42 EDT    2.50   3.21    8  123   10  73.0  75.9 1016.9 -9.9 -9.999 -99.9 -99.99 -9.99
2019/08/15 11:48 EDT    2.41   3.09    8  117   10  73.0  75.9 1016.9 -9.9 -9.999 -99.9 -99.99 -9.99
2019/08/15 11:54 EDT    2.31   2.99    8  144   10  73.0  75.7 1016.9 -9.9 -9.999 -99.9 -99.99 -9.99
2019/08/15 12:00 EDT    2.21   2.89    8  125   10  72.7  75.7 1016.9 -9.9 -9.999 -99.9 -99.99 -9.99
2019/08/15 12:06 EDT    2.12   2.79    8  130   11  72.5  75.6 1016.9 -9.9 -9.999 -99.9 -99.99 -9.99
2019/08/15 12:12 EDT    2.02   2.70    9  146   12  72.5  75.6 1016.9 -9.9 -9.999 -99.9 -99.99 -9.99
2019/08/15 12:18 EDT    1.93   2.62    9  145   11  72.1  75.4 1016.9 -9.9 -9.999 -99.9 -99.99 -9.99
2019/08/15 12:24 EDT    1.83   2.55    9  142   11  72.1  75.4 1016.8 -9.9 -9.999 -99.9 -99.99 -9.99
2019/08/15 12:30 EDT    1.74   2.46    8  142    9  72.3  75.2 1016.8 -9.9 -9.999 -99.9 -99.99 -9.99
2019/08/15 12:36 EDT    1.65   2.39    7  145   10  72.5  75.4 1016.7 -9.9 -9.999 -99.9 -99.99 -9.99
2019/08/15 12:42 EDT    1.56   2.31    7  128   10  72.7  75.4 1016.7 -9.9 -9.999 -99.9 -99.99 -9.99
2019/08/15 12:48 EDT    1.47   2.23    8  145   11  73.2  75.2 1016.7 -9.9 -9.999 -99.9 -99.99 -9.99
2019/08/15 12:54 EDT    1.39   2.15    8  124   11  72.7  75.0 1016.7 -9.9 -9.999 -99.9 -99.99 -9.99
2019/08/15 13:00 EDT    1.30   2.11    6  132   11  72.9  74.8 1016.7 -9.9 -9.999 -99.9 -99.99 -9.99
2019/08/15 13:06 EDT    1.22   2.04    7  140   11  73.2  74.8 1016.6 -9.9 -9.999 -99.9 -99.99 -9.99
2019/08/15 13:12 EDT    1.14   1.95    8  141   11  72.9  74.7 1016.7 -9.9 -9.999 -99.9 -99.99 -9.99
2019/08/15 13:18 EDT    1.06   1.90    7  145   11  72.5  74.8 1016.8 -9.9 -9.999 -99.9 -99.99 -9.99
2019/08/15 13:24 EDT    0.99   1.84    9  138   11  72.7  75.0 1016.7 -9.9 -9.999 -99.9 -99.99 -9.99
2019/08/15 13:30 EDT    0.92   1.79    8  130   10  73.0  75.0 1016.6 -9.9 -9.999 -99.9 -99.99 -9.99
2019/08/15 13:36 EDT    0.85   1.72    8  142   12  73.4  75.2 1016.6 -9.9 -9.999 -99.9 -99.99 -9.99
2019/08/15 13:42 EDT    0.79   1.69   11  142   15  72.9  75.0 1016.6 -9.9 -9.999 -99.9 -99.99 -9.99
2019/08/15 13:48 EDT    0.73   1.63   11  142   15  72.3  75.0 1016.4 -9.9 -9.999 -99.9 -99.99 -9.99
2019/08/15 13:54 EDT    0.68   1.59   11  142   13  72.3  75.0 1016.4 -9.9 -9.999 -99.9 -99.99 -9.99
2019/08/15 14:00 EDT    0.63   1.54   11  139   15  72.5  75.2 1016.5 -9.9 -9.999 -99.9 -99.99 -9.99
2019/08/15 14:06 EDT    0.58   1.49   10  137   15  72.1  75.6 1016.4 -9.9 -9.999 -99.9 -99.99 -9.99
2019/08/15 14:12 EDT    0.55   1.48   10  125   15  72.3  75.6 1016.4 -9.9 -9.999 -99.9 -99.99 -9.99
2019/08/15 14:18 EDT    0.52   1.46   10  138   15  72.5  76.3 1016.3 -9.9 -9.999 -99.9 -99.99 -9.99
2019/08/15 14:24 EDT    0.49   1.41   11  123   14  72.5  76.3 1016.3 -9.9 -9.999 -99.9 -99.99 -9.99
2019/08/15 14:30 EDT    0.48   1.38    9  148   13  72.3  76.5 1016.2 -9.9 -9.999 -99.9 -99.99 -9.99
2019/08/15 14:36 EDT    0.47   1.38   10  145   14  72.5  76.5 1016.2 -9.9 -9.999 -99.9 -99.99 -9.99
2019/08/15 14:42 EDT    0.46   1.37   10  152   12  72.7  77.0 1016.2 -9.9 -9.999 -99.9 -99.99 -9.99
2019/08/15 14:48 EDT    0.47   1.39   10  143   13  72.3  76.5 1016.2 -9.9 -9.999 -99.9 -99.99 -9.99
2019/08/15 14:54 EDT    0.48   1.37   11  141   13  72.9  76.6 1016.1 -9.9 -9.999 -99.9 -99.99 -9.99
2019/08/15 15:00 EDT    0.50   1.37   10  144   14  72.5  76.8 1016.2 -9.9 -9.999 -99.9 -99.99 -9.99
2019/08/15 15:06 EDT    0.53   1.39   10  133   12  72.7  76.8 1016.1 -9.9 -9.999 -99.9 -99.99 -9.99
2019/08/15 15:12 EDT    0.56   1.42   10  141   13  73.0  76.8 1016.0 -9.9 -9.999 -99.9 -99.99 -9.99
2019/08/15 15:18 EDT    0.61   1.43   10  138   14  72.9  76.8 1015.9 -9.9 -9.999 -99.9 -99.99 -9.99
2019/08/15 15:24 EDT    0.66   1.47   10  135   12  73.0  76.8 1015.9 -9.9 -9.999 -99.9 -99.99 -9.99
2019/08/15 15:30 EDT    0.71   1.53   10  140   12  73.0  77.0 1015.9 -9.9 -9.999 -99.9 -99.99 -9.99
2019/08/15 15:36 EDT    0.78   1.56   10  134   14  73.0  76.8 1015.8 -9.9 -9.999 -99.9 -99.99 -9.99
2019/08/15 15:42 EDT    0.85   1.61   10  120   13  72.7  76.6 1015.8 -9.9 -9.999 -99.9 -99.99 -9.99
2019/08/15 15:48 EDT    0.93   1.70   11  121   14  72.9  76.6 1015.8 -9.9 -9.999 -99.9 -99.99 -9.99
2019/08/15 15:54 EDT    1.01   1.76    9  127   14  72.9  77.0 1015.8 -9.9 -9.999 -99.9 -99.99 -9.99
2019/08/15 16:00 EDT    1.10   1.82    9  131   13  72.9  77.4 1015.8 -9.9 -9.999 -99.9 -99.99 -9.99
2019/08/15 16:06 EDT    1.19   1.91   10  131   14  73.0  77.0 1015.9 -9.9 -9.999 -99.9 -99.99 -9.99
2019/08/15 16:12 EDT    1.29   2.00   11  148   14  72.9  77.0 1016.0 -9.9 -9.999 -99.9 -99.99 -9.99
2019/08/15 16:18 EDT    1.40   2.08   10  141   13  72.5  76.8 1016.1 -9.9 -9.999 -99.9 -99.99 -9.99
2019/08/15 16:24 EDT    1.51   2.18   12  146   14  72.5  77.0 1016.0 -9.9 -9.999 -99.9 -99.99 -9.99
2019/08/15 16:30 EDT    1.62   2.29   11  143   14  72.0  76.8 1016.0 -9.9 -9.999 -99.9 -99.99 -9.99
2019/08/15 16:36 EDT    1.73   2.38    9  145   13  72.0  76.6 1015.8 -9.9 -9.999 -99.9 -99.99 -9.99
2019/08/15 16:42 EDT    1.85   2.54   12  132   15  72.3  76.6 1015.7 -9.9 -9.999 -99.9 -99.99 -9.99
2019/08/15 16:48 EDT    1.97   2.62   10  127   14  71.8  76.8 1015.7 -9.9 -9.999 -99.9 -99.99 -9.99
2019/08/15 16:54 EDT    2.09   2.76   11  136   15  72.3  76.5 1015.8 -9.9 -9.999 -99.9 -99.99 -9.99
2019/08/15 17:00 EDT    2.21   2.89   11  132   16  72.0  76.1 1015.8 -9.9 -9.999 -99.9 -99.99 -9.99
2019/08/15 17:06 EDT    2.33   3.04   11  135   13  71.8  75.9 1015.9 -9.9 -9.999 -99.9 -99.99 -9.99
2019/08/15 17:12 EDT    2.46   3.13   10  127   15  71.6  75.4 1015.7 -9.9 -9.999 -99.9 -99.99 -9.99
2019/08/15 17:18 EDT    2.58   3.29   12  128   16  71.8  75.4 1015.7 -9.9 -9.999 -99.9 -99.99 -9.99
2019/08/15 17:24 EDT    2.71   3.39   10  145   14  71.4  77.5 1015.8 -9.9 -9.999 -99.9 -99.99 -9.99
2019/08/15 17:30 EDT    2.83   3.55   10  130   13  71.4  77.9 1015.8 -9.9 -9.999 -99.9 -99.99 -9.99
2019/08/15 17:36 EDT    2.95   3.69   10  138   13  71.6  77.9 1015.8 -9.9 -9.999 -99.9 -99.99 -9.99
2019/08/15 17:42 EDT    3.08   3.83   10  132   13  71.6  77.7 1015.9 -9.9 -9.999 -99.9 -99.99 -9.99
2019/08/15 17:48 EDT    3.20   3.95    8  139   12  71.6  77.4 1015.9 -9.9 -9.999 -99.9 -99.99 -9.99
2019/08/15 17:54 EDT    3.32   4.12   10  144   13  71.8  75.6 1015.9 -9.9 -9.999 -99.9 -99.99 -9.99
2019/08/15 18:00 EDT    3.44   4.24   10  132   13  71.8  75.2 1016.0 -9.9 -9.999 -99.9 -99.99 -9.99
2019/08/15 18:06 EDT    3.56   4.37   11  144   12  71.8  74.7 1016.0 -9.9 -9.999 -99.9 -99.99 -9.99
2019/08/15 18:12 EDT    3.67   4.49   10  147   13  71.6  74.8 1016.1 -9.9 -9.999 -99.9 -99.99 -9.99
2019/08/15 18:18 EDT    3.79   4.61    8  137   12  72.3  74.1 1016.3 -9.9 -9.999 -99.9 -99.99 -9.99
2019/08/15 18:24 EDT    3.90   4.70   10  144   12  72.3  74.1 1016.3 -9.9 -9.999 -99.9 -99.99 -9.99
2019/08/15 18:30 EDT    4.01   4.83   10  153   12  72.0  74.1 1016.4 -9.9 -9.999 -99.9 -99.99 -9.99
2019/08/15 18:36 EDT    4.11   4.91    9  150   14  72.0  74.1 1016.4 -9.9 -9.999 -99.9 -99.99 -9.99
2019/08/15 18:42 EDT    4.22   5.02    9  138   12  72.1  74.3 1016.3 -9.9 -9.999 -99.9 -99.99 -9.99
2019/08/15 18:48 EDT    4.32   5.12    7  129   12  71.8  73.9 1016.4 -9.9 -9.999 -99.9 -99.99 -9.99
2019/08/15 18:54 EDT    4.42   5.20    7  131   10  72.0  73.8 1016.2 -9.9 -9.999 -99.9 -99.99 -9.99
2019/08/15 19:00 EDT    4.52   5.30    7  127    9  71.8  73.8 1016.2 -9.9 -9.999 -99.9 -99.99 -9.99
2019/08/15 19:06 EDT    4.61   5.41    8  142   11  72.0  73.6 1016.3 -9.9 -9.999 -99.9 -99.99 -9.99
2019/08/15 19:12 EDT    4.70   5.50    6  125   10  71.8  73.6 1016.4 -9.9 -9.999 -99.9 -99.99 -9.99
2019/08/15 19:18 EDT    4.79   5.55    8  126   11  71.8  73.6 1016.3 -9.9 -9.999 -99.9 -99.99 -9.99
2019/08/15 19:24 EDT    4.87   5.64    6  126    9  71.8  73.4 1016.4 -9.9 -9.999 -99.9 -99.99 -9.99
2019/08/15 19:30 EDT    4.95   5.74    7  111    8  71.6  73.4 1016.2 -9.9 -9.999 -99.9 -99.99 -9.99
2019/08/15 19:36 EDT    5.02   5.78    7  125    9  71.6  73.4 1016.2 -9.9 -9.999 -99.9 -99.99 -9.99
2019/08/15 19:42 EDT    5.09   5.85    5  123   11  71.6  73.4 1016.1 -9.9 -9.999 -99.9 -99.99 -9.99
2019/08/15 19:48 EDT    5.16   5.92    8  118   10  71.6  73.4 1016.2 -9.9 -9.999 -99.9 -99.99 -9.99
2019/08/15 19:54 EDT    5.22   5.96    8  113   11  71.4  73.4 1016.1 -9.9 -9.999 -99.9 -99.99 -9.99
2019/08/15 20:00 EDT    5.27   5.98    6  111   10  71.4  73.8 1016.0 -9.9 -9.999 -99.9 -99.99 -9.99
2019/08/15 20:06 EDT    5.32   6.06    7  118   11  71.4  73.8 1016.1 -9.9 -9.999 -99.9 -99.99 -9.99
2019/08/15 20:12 EDT    5.37   6.08    9  118   11  71.4  74.1 1016.0 -9.9 -9.999 -99.9 -99.99 -9.99
2019/08/15 20:18 EDT    5.40   6.09    8  113   11  71.4  74.1 1015.9 -9.9 -9.999 -99.9 -99.99 -9.99
2019/08/15 20:24 EDT    5.43   6.11    7  123   10  71.4  74.3 1016.0 -9.9 -9.999 -99.9 -99.99 -9.99
2019/08/15 20:30 EDT    5.46   6.13    7  116   11  71.4  74.5 1015.9 -9.9 -9.999 -99.9 -99.99 -9.99
2019/08/15 20:36 EDT    5.47   6.13    8  102   10  71.6  74.8 1015.9 -9.9 -9.999 -99.9 -99.99 -9.99
2019/08/15 20:42 EDT    5.48   6.15    6  112   11  71.4  74.8 1016.0 -9.9 -9.999 -99.9 -99.99 -9.99
2019/08/15 20:48 EDT    5.49   6.14    7  116   11  71.4  74.8 1016.1 -9.9 -9.999 -99.9 -99.99 -9.99
2019/08/15 20:54 EDT    5.48   6.18    6  108    8  71.4  75.0 1016.2 -9.9 -9.999 -99.9 -99.99 -9.99
2019/08/15 21:00 EDT    5.47   6.15    8  108   10  71.2  75.2 1016.3 -9.9 -9.999 -99.9 -99.99 -9.99
2019/08/15 21:06 EDT    5.45   6.13    8  108   10  71.4  75.2 1016.3 -9.9 -9.999 -99.9 -99.99 -9.99
2019/08/15 21:12 EDT    5.42   6.13    6   98   11  71.4  75.0 1016.4 -9.9 -9.999 -99.9 -99.99 -9.99
2019/08/15 21:18 EDT    5.39   6.12    7   94   11  71.4  74.8 1016.4 -9.9 -9.999 -99.9 -99.99 -9.99
2019/08/15 21:24 EDT    5.35   6.05    7   94    9  71.4  74.8 1016.4 -9.9 -9.999 -99.9 -99.99 -9.99
2019/08/15 21:30 EDT    5.30   6.03    7   89   10  71.4  74.7 1016.3 -9.9 -9.999 -99.9 -99.99 -9.99
2019/08/15 21:36 EDT    5.25   5.98    5   83    9  71.4  74.7 1016.6 -9.9 -9.999 -99.9 -99.99 -9.99
2019/08/15 21:42 EDT    5.19   5.92    5   97    7  71.4  74.7 1016.6 -9.9 -9.999 -99.9 -99.99 -9.99
2019/08/15 21:48 EDT    5.12   5.87    5   94    8  71.4  74.8 1016.6 -9.9 -9.999 -99.9 -99.99 -9.99
2019/08/15 21:54 EDT    5.05   5.79    6   98    8  71.4  75.0 1016.7 -9.9 -9.999 -99.9 -99.99 -9.99
2019/08/15 22:00 EDT    4.97   5.71    6   99    9  71.4  75.7 1016.4 -9.9 -9.999 -99.9 -99.99 -9.99
2019/08/15 22:06 EDT    4.89   5.61    6   97    9  71.2  75.9 1016.3 -9.9 -9.999 -99.9 -99.99 -9.99
2019/08/15 22:12 EDT    4.80   5.56    5   99    8  71.2  76.1 1016.3 -9.9 -9.999 -99.9 -99.99 -9.99
2019/08/15 22:18 EDT    4.70   5.45    5   84    6  71.4  76.3 1016.5 -9.9 -9.999 -99.9 -99.99 -9.99
2019/08/15 22:24 EDT    4.61   5.34    6  102    8  71.4  76.3 1016.5 -9.9 -9.999 -99.9 -99.99 -9.99
2019/08/15 22:30 EDT    4.50   5.27    6  107    9  71.4  76.3 1016.5 -9.9 -9.999 -99.9 -99.99 -9.99
2019/08/15 22:36 EDT    4.40   5.18    5  108    7  71.4  76.3 1016.7 -9.9 -9.999 -99.9 -99.99 -9.99
2019/08/15 22:42 EDT    4.29   5.06    7  101    9  71.4  76.3 1016.9 -9.9 -9.999 -99.9 -99.99 -9.99
2019/08/15 22:48 EDT    4.18   4.96    5   93    7  71.6  76.3 1016.9 -9.9 -9.999 -99.9 -99.99 -9.99
2019/08/15 22:54 EDT    4.07   4.83    7  100   10  71.8  76.3 1016.9 -9.9 -9.999 -99.9 -99.99 -9.99
2019/08/15 23:00 EDT    3.96   4.73    7  105    9  71.8  76.1 1017.0 -9.9 -9.999 -99.9 -99.99 -9.99
2019/08/15 23:06 EDT    3.84   4.63    7  103   10  71.8  76.1 1017.2 -9.9 -9.999 -99.9 -99.99 -9.99
2019/08/15 23:12 EDT    3.72   4.52    7  106   10  71.8  76.1 1017.2 -9.9 -9.999 -99.9 -99.99 -9.99
2019/08/15 23:18 EDT    3.61   4.40    7   96   11  71.8  76.1 1017.2 -9.9 -9.999 -99.9 -99.99 -9.99
2019/08/15 23:24 EDT    3.49   4.28    8  104   10  71.8  76.1 1017.3 -9.9 -9.999 -99.9 -99.99 -9.99
2019/08/15 23:30 EDT    3.37   4.18    8  109   11  71.8  76.1 1017.2 -9.9 -9.999 -99.9 -99.99 -9.99
2019/08/15 23:36 EDT    3.25   4.06    8  104   11  71.8  76.1 1017.1 -9.9 -9.999 -99.9 -99.99 -9.99
2019/08/15 23:42 EDT    3.13   3.94    7   99   10  71.6  75.9 1017.1 -9.9 -9.999 -99.9 -99.99 -9.99
2019/08/15 23:48 EDT    3.01   3.81    8  110   11  71.6  75.6 1017.0 -9.9 -9.999 -99.9 -99.99 -9.99
2019/08/15 23:54 EDT    2.89   3.71    8  102   13  71.4  74.5 1016.9 -9.9 -9.999 -99.9 -99.99 -9.99
2019/08/16 00:00 EDT    2.77   3.60    8  102   13  71.2  73.8 1016.8 -9.9 -9.999 -99.9 -99.99 -9.99
2019/08/16 00:06 EDT    2.66   3.47    8  111   12  71.2  73.4 1016.7 -9.9 -9.999 -99.9 -99.99 -9.99
2019/08/16 00:12 EDT    2.54   3.37    7  100   11  71.2  73.4 1016.7 -9.9 -9.999 -99.9 -99.99 -9.99
2019/08/16 00:18 EDT    2.42   3.30    6   95   10  71.2  73.2 1016.8 -9.9 -9.999 -99.9 -99.99 -9.99
2019/08/16 00:24 EDT    2.31   3.18    7  105    9  71.2  73.2 1016.9 -9.9 -9.999 -99.9 -99.99 -9.99
2019/08/16 00:30 EDT    2.19   3.10    6   96    8  71.2  73.2 1017.1 -9.9 -9.999 -99.9 -99.99 -9.99
2019/08/16 00:36 EDT    2.08   3.04    6   93    8  71.1  73.2 1017.2 -9.9 -9.999 -99.9 -99.99 -9.99
2019/08/16 00:42 EDT    1.97   2.94    5   89    8  71.1  73.2 1017.2 -9.9 -9.999 -99.9 -99.99 -9.99
2019/08/16 00:48 EDT    1.85   2.83    6   84    9  71.1  73.2 1017.1 -9.9 -9.999 -99.9 -99.99 -9.99
2019/08/16 00:54 EDT    1.74   2.74    4   73    8  71.1  73.4 1017.0 -9.9 -9.999 -99.9 -99.99 -9.99
2019/08/16 01:00 EDT    1.63   2.66    5   74    9  70.9  73.4 1017.1 -9.9 -9.999 -99.9 -99.99 -9.99
2019/08/16 01:06 EDT    1.53   2.54    6   84    9  70.9  73.4 1017.0 -9.9 -9.999 -99.9 -99.99 -9.99
2019/08/16 01:12 EDT    1.42   2.40    6   76    8  70.9  73.4 1016.7 -9.9 -9.999 -99.9 -99.99 -9.99
2019/08/16 01:18 EDT    1.32   2.33    7   79    9  70.9  73.4 1016.7 -9.9 -9.999 -99.9 -99.99 -9.99
2019/08/16 01:24 EDT    1.22   2.21    6   68    9  70.7  73.4 1016.7 -9.9 -9.999 -99.9 -99.99 -9.99
2019/08/16 01:30 EDT    1.12   2.11    5   66    8  70.9  73.4 1016.7 -9.9 -9.999 -99.9 -99.99 -9.99
2019/08/16 01:36 EDT    1.02   2.01    7   67    9  70.9  73.4 1016.8 -9.9 -9.999 -99.9 -99.99 -9.99
2019/08/16 01:42 EDT    0.93   1.92    7   61   10  71.1  73.4 1016.7 -9.9 -9.999 -99.9 -99.99 -9.99
2019/08/16 01:48 EDT    0.84   1.84    8   49   10  71.1  73.4 1016.7 -9.9 -9.999 -99.9 -99.99 -9.99
2019/08/16 01:54 EDT    0.75   1.72    6   59    9  70.9  73.2 1016.8 -9.9 -9.999 -99.9 -99.99 -9.99
2019/08/16 02:00 EDT    0.67   1.65    7   65    9  70.9  73.2 1016.6 -9.9 -9.999 -99.9 -99.99 -9.99
2019/08/16 02:06 EDT    0.59   1.56    7   63   10  70.7  73.4 1016.4 -9.9 -9.999 -99.9 -99.99 -9.99
2019/08/16 02:12 EDT    0.52   1.47    7   66   10  70.7  73.4 1016.4 -9.9 -9.999 -99.9 -99.99 -9.99
2019/08/16 02:18 EDT    0.45   1.36    8   72   11  70.7  73.2 1016.5 -9.9 -9.999 -99.9 -99.99 -9.99
2019/08/16 02:24 EDT    0.38   1.30    7   70   10  70.7  73.4 1016.4 -9.9 -9.999 -99.9 -99.99 -9.99
2019/08/16 02:30 EDT    0.33   1.24    6   58    9  70.7  73.4 1016.5 -9.9 -9.999 -99.9 -99.99 -9.99
2019/08/16 02:36 EDT    0.28   1.17    6   59   10  70.7  73.4 1016.6 -9.9 -9.999 -99.9 -99.99 -9.99
2019/08/16 02:42 EDT    0.23   1.09    8   59   11  70.7  73.4 1016.6 -9.9 -9.999 -99.9 -99.99 -9.99
2019/08/16 02:48 EDT    0.20   1.06    8   66   11  70.5  73.4 1016.5 -9.9 -9.999 -99.9 -99.99 -9.99
2019/08/16 02:54 EDT    0.17   1.01    7   59   11  70.5  73.4 1016.3 -9.9 -9.999 -99.9 -99.99 -9.99
2019/08/16 03:00 EDT    0.15   0.96    7   57   11  70.3  73.4 1016.2 -9.9 -9.999 -99.9 -99.99 -9.99
2019/08/16 03:06 EDT    0.13   0.92    8   59   12  70.3  73.4 1016.3 -9.9 -9.999 -99.9 -99.99 -9.99
2019/08/16 03:12 EDT    0.12   0.89    7   63   12  70.3  73.4 1016.2 -9.9 -9.999 -99.9 -99.99 -9.99
2019/08/16 03:18 EDT    0.13   0.86    7   72   12  70.3  73.4 1016.1 -9.9 -9.999 -99.9 -99.99 -9.99
2019/08/16 03:24 EDT    0.14   0.82    6   63   11  70.3  73.4 1016.1 -9.9 -9.999 -99.9 -99.99 -9.99
2019/08/16 03:30 EDT    0.15   0.81    8   66   11  70.5  73.2 1016.3 -9.9 -9.999 -99.9 -99.99 -9.99
2019/08/16 03:36 EDT    0.18   0.83    7   72   11  70.5  73.2 1016.2 -9.9 -9.999 -99.9 -99.99 -9.99
2019/08/16 03:42 EDT    0.21   0.81    6   81    9  70.7  73.2 1016.2 -9.9 -9.999 -99.9 -99.99 -9.99
2019/08/16 03:48 EDT    0.25   0.80    8   81   11  70.5  73.2 1016.2 -9.9 -9.999 -99.9 -99.99 -9.99
2019/08/16 03:54 EDT    0.30   0.84    7   69   11  70.7  73.2 1016.2 -9.9 -9.999 -99.9 -99.99 -9.99
2019/08/16 04:00 EDT    0.36   0.90    7   72   10  70.7  73.2 1016.3 -9.9 -9.999 -99.9 -99.99 -9.99
2019/08/16 04:06 EDT    0.42   0.96    7   77   10  70.7  73.2 1016.3 -9.9 -9.999 -99.9 -99.99 -9.99
2019/08/16 04:12 EDT    0.49   1.02    7   75   10  70.7  73.2 1016.3 -9.9 -9.999 -99.9 -99.99 -9.99
2019/08/16 04:18 EDT    0.56   1.13    8   55   11  70.7  73.2 1016.3 -9.9 -9.999 -99.9 -99.99 -9.99
2019/08/16 04:24 EDT    0.65   1.22    8   48   12  70.5  73.2 1016.3 -9.9 -9.999 -99.9 -99.99 -9.99
2019/08/16 04:30 EDT    0.73   1.34    7   44   12  70.3  73.2 1016.3 -9.9 -9.999 -99.9 -99.99 -9.99
2019/08/16 04:36 EDT    0.83   1.46    6   42   11  70.2  73.2 1016.2 -9.9 -9.999 -99.9 -99.99 -9.99
2019/08/16 04:42 EDT    0.92   1.61    8   45   10  70.2  73.2 1016.3 -9.9 -9.999 -99.9 -99.99 -9.99
2019/08/16 04:48 EDT    1.02   1.73    7   48    9  70.2  73.4 1016.3 -9.9 -9.999 -99.9 -99.99 -9.99
2019/08/16 04:54 EDT    1.13   1.81    4   45    9  70.0  73.4 1016.4 -9.9 -9.999 -99.9 -99.99 -9.99
2019/08/16 05:00 EDT    1.24   1.95    6   43   10  69.8  73.2 1016.4 -9.9 -9.999 -99.9 -99.99 -9.99
2019/08/16 05:06 EDT    1.35   2.10    4   48    9  69.8  73.2 1016.4 -9.9 -9.999 -99.9 -99.99 -9.99
2019/08/16 05:12 EDT    1.46   2.22    6   54    8  70.0  73.2 1016.5 -9.9 -9.999 -99.9 -99.99 -9.99
2019/08/16 05:18 EDT    1.58   2.31    7   52    9  69.8  73.2 1016.5 -9.9 -9.999 -99.9 -99.99 -9.99
2019/08/16 05:24 EDT    1.69   2.43    6   64   10  70.0  73.2 1016.5 -9.9 -9.999 -99.9 -99.99 -9.99
2019/08/16 05:30 EDT    1.81   2.59    6   59    9  70.0  73.2 1016.6 -9.9 -9.999 -99.9 -99.99 -9.99
2019/08/16 05:36 EDT    1.93   2.71    5   62    8  70.0  73.2 1016.6 -9.9 -9.999 -99.9 -99.99 -9.99
2019/08/16 05:42 EDT    2.05   2.84    4   57    7  70.0  73.0 1016.7 -9.9 -9.999 -99.9 -99.99 -9.99
2019/08/16 05:48 EDT    2.17   2.97    4   61    8  70.0  73.0 1016.9 -9.9 -9.999 -99.9 -99.99 -9.99
2019/08/16 05:54 EDT    2.28   3.11    4   71    7  70.0  73.0 1017.0 -9.9 -9.999 -99.9 -99.99 -9.99
2019/08/16 06:00 EDT    2.40   3.24    5   68    7  70.0  73.0 1016.9 -9.9 -9.999 -99.9 -99.99 -9.99
2019/08/16 06:06 EDT    2.52   3.40    5   55    8  70.0  73.0 1016.9 -9.9 -9.999 -99.9 -99.99 -9.99
2019/08/16 06:12 EDT    2.63   3.50    6   63    8  69.8  73.0 1016.9 -9.9 -9.999 -99.9 -99.99 -9.99
2019/08/16 06:18 EDT    2.75   3.62    6   69    8  69.8  73.0 1017.0 -9.9 -9.999 -99.9 -99.99 -9.99
2019/08/16 06:24 EDT    2.86   3.74    6   72   10  69.6  73.0 1016.9 -9.9 -9.999 -99.9 -99.99 -9.99
2019/08/16 06:30 EDT    2.97   3.84    6   64    9  69.6  73.0 1016.8 -9.9 -9.999 -99.9 -99.99 -9.99
2019/08/16 06:36 EDT    3.08   3.98    6   76    9  69.6  73.0 1016.9 -9.9 -9.999 -99.9 -99.99 -9.99
2019/08/16 06:42 EDT    3.19   4.05    7   73    9  69.6  73.2 1017.0 -9.9 -9.999 -99.9 -99.99 -9.99
2019/08/16 06:48 EDT    3.30   4.15    7   80    9  69.6  73.0 1016.9 -9.9 -9.999 -99.9 -99.99 -9.99
2019/08/16 06:54 EDT    3.40   4.27    7   71   10  69.4  73.0 1016.8 -9.9 -9.999 -99.9 -99.99 -9.99
2019/08/16 07:00 EDT    3.50   4.37    7   79    9  69.4  73.0 1016.8 -9.9 -9.999 -99.9 -99.99 -9.99
2019/08/16 07:06 EDT    3.60   4.43    5   78    8  69.4  73.2 1016.8 -9.9 -9.999 -99.9 -99.99 -9.99
2019/08/16 07:12 EDT    3.70   4.53    6   81    8  69.6  73.2 1016.9 -9.9 -9.999 -99.9 -99.99 -9.99
2019/08/16 07:18 EDT    3.79   4.63    6   75    9  69.6  73.2 1017.0 -9.9 -9.999 -99.9 -99.99 -9.99
2019/08/16 07:24 EDT    3.88   4.69    7   78    9  69.4  73.4 1016.9 -9.9 -9.999 -99.9 -99.99 -9.99
2019/08/16 07:30 EDT    3.97   4.73    8   72   10  69.6  73.4 1017.0 -9.9 -9.999 -99.9 -99.99 -9.99
2019/08/16 07:36 EDT    4.05   4.80    8   79   10  69.6  73.4 1016.9 -9.9 -9.999 -99.9 -99.99 -9.99
2019/08/16 07:42 EDT    4.14   4.87    6   77    9  69.8  73.4 1017.1 -9.9 -9.999 -99.9 -99.99 -9.99
2019/08/16 07:48 EDT    4.21   4.93    7   78    9  70.2  73.4 1017.2 -9.9 -9.999 -99.9 -99.99 -9.99
2019/08/16 07:54 EDT    4.29   4.98    6   71    8  70.0  73.4 1017.2 -9.9 -9.999 -99.9 -99.99 -9.99
2019/08/16 08:00 EDT    4.36   5.05    5   72    9  70.2  73.4 1017.1 -9.9 -9.999 -99.9 -99.99 -9.99
2019/08/16 08:06 EDT    4.42   5.11    6   74    9  70.3  73.4 1017.1 -9.9 -9.999 -99.9 -99.99 -9.99
2019/08/16 08:12 EDT    4.49   5.14    7   69   10  70.3  73.4 1017.1 -9.9 -9.999 -99.9 -99.99 -9.99
2019/08/16 08:18 EDT    4.54   5.20    6   62    9  70.7  73.4 1017.2 -9.9 -9.999 -99.9 -99.99 -9.99
2019/08/16 08:24 EDT    4.60   5.24    4   55    8  70.9  73.4 1017.3 -9.9 -9.999 -99.9 -99.99 -9.99
2019/08/16 08:30 EDT    4.64   5.28    6   49    8  71.1  73.4 1017.4 -9.9 -9.999 -99.9 -99.99 -9.99
2019/08/16 08:36 EDT    4.68   5.31    6   49    9  70.7  73.4 1017.2 -9.9 -9.999 -99.9 -99.99 -9.99
2019/08/16 08:42 EDT    4.72   5.32    6   60    9  70.9  73.4 1017.3 -9.9 -9.999 -99.9 -99.99 -9.99
2019/08/16 08:48 EDT    4.75   5.36    5   87    7  70.7  73.4 1017.2 -9.9 -9.999 -99.9 -99.99 -9.99
2019/08/16 08:54 EDT    4.77   5.35    6   82    9  70.7  73.4 1017.2 -9.9 -9.999 -99.9 -99.99 -9.99
2019/08/16 09:00 EDT    4.79   5.37    6   78   10  70.9  73.4 1017.1 -9.9 -9.999 -99.9 -99.99 -9.99
2019/08/16 09:06 EDT    4.80   5.38    6   71    8  71.1  73.4 1017.3 -9.9 -9.999 -99.9 -99.99 -9.99
2019/08/16 09:12 EDT    4.81   5.39    6   91    9  70.9  73.4 1017.2 -9.9 -9.999 -99.9 -99.99 -9.99
2019/08/16 09:18 EDT    4.81   5.38    6   79    8  70.7  73.4 1017.3 -9.9 -9.999 -99.9 -99.99 -9.99
2019/08/16 09:24 EDT    4.80   5.38    6   84    8  70.7  73.4 1017.4 -9.9 -9.999 -99.9 -99.99 -9.99
2019/08/16 09:30 EDT    4.78   5.36    6   89   10  70.9  73.4 1017.3 -9.9 -9.999 -99.9 -99.99 -9.99
2019/08/16 09:36 EDT    4.76   5.35    8   87   10  71.1  73.4 1017.2 -9.9 -9.999 -99.9 -99.99 -9.99
2019/08/16 09:42 EDT    4.73   5.30    8   87   10  71.1  73.4 1017.1 -9.9 -9.999 -99.9 -99.99 -9.99
2019/08/16 09:48 EDT    4.70   5.30    7   89    9  71.4  73.4 1017.1 -9.9 -9.999 -99.9 -99.99 -9.99
2019/08/16 09:54 EDT    4.66   5.25   10   86   12  71.6  73.4 1017.1 -9.9 -9.999 -99.9 -99.99 -9.99
2019/08/16 10:00 EDT    4.61   5.23    9  101   11  71.2  73.4 1017.0 -9.9 -9.999 -99.9 -99.99 -9.99
2019/08/16 10:06 EDT    4.56   5.16    9   91   11  72.0  73.4 1017.2 -9.9 -9.999 -99.9 -99.99 -9.99
2019/08/16 10:12 EDT    4.50   5.15    9  111   11  71.8  73.4 1017.3 -9.9 -9.999 -99.9 -99.99 -9.99
2019/08/16 10:18 EDT    4.44   5.08    9   93   11  71.4  73.4 1017.4 -9.9 -9.999 -99.9 -99.99 -9.99
2019/08/16 10:24 EDT    4.37   5.03    8  118   12  71.2  73.4 1017.5 -9.9 -9.999 -99.9 -99.99 -9.99
2019/08/16 10:30 EDT    4.29   4.95    8   99   11  71.6  73.4 1017.6 -9.9 -9.999 -99.9 -99.99 -9.99
2019/08/16 10:36 EDT    4.21   4.89    8  110   10  71.6  73.4 1017.6 -9.9 -9.999 -99.9 -99.99 -9.99
2019/08/16 10:42 EDT    4.13   4.84    8  123   10  72.0  73.4 1017.6 -9.9 -9.999 -99.9 -99.99 -9.99
2019/08/16 10:48 EDT    4.05   4.76    7  116   10  72.3  73.4 1017.6 -9.9 -9.999 -99.9 -99.99 -9.99
2019/08/16 10:54 EDT    3.96   4.67    7  123   10  72.3  73.4 1017.6 -9.9 -9.999 -99.9 -99.99 -9.99
2019/08/16 11:00 EDT    3.87   4.59    7  126   10  72.1  73.4 1017.6 -9.9 -9.999 -99.9 -99.99 -9.99
2019/08/16 11:06 EDT    3.77   4.52    9  108   11  71.8  73.4 1017.6 -9.9 -9.999 -99.9 -99.99 -9.99
2019/08/16 11:12 EDT    3.68   4.44    8  119   10  71.8  73.4 1017.6 -9.9 -9.999 -99.9 -99.99 -9.99
2019/08/16 11:18 EDT    3.58   4.33    9   95   12  72.5  73.4 1017.6 -9.9 -9.999 -99.9 -99.99 -9.99
2019/08/16 11:24 EDT    3.48   4.26    8  134   12  72.1  73.4 1017.5 -9.9 -9.999 -99.9 -99.99 -9.99
2019/08/16 11:30 EDT    3.38   4.17    9   99   11  72.0  73.4 1017.6 -9.9 -9.999 -99.9 -99.99 -9.99
2019/08/16 11:36 EDT    3.28   4.08    7  106   11  72.0  73.4 1017.5 -9.9 -9.999 -99.9 -99.99 -9.99
2019/08/16 11:42 EDT    3.18   3.98    9  118   12  72.5  73.4 1017.7 -9.9 -9.999 -99.9 -99.99 -9.99
2019/08/16 11:48 EDT    3.08   3.88    7  115   11  72.3  73.4 1017.7 -9.9 -9.999 -99.9 -99.99 -9.99
2019/08/16 11:54 EDT    2.97   3.79    9  111   12  72.5  73.4 1017.7 -9.9 -9.999 -99.9 -99.99 -9.99
2019/08/16 12:00 EDT    2.87   3.70    9  103   11  72.0  73.4 1017.7 -9.9 -9.999 -99.9 -99.99 -9.99
2019/08/16 12:06 EDT    2.77   3.60   10   92   12  72.0  73.4 1017.7 -9.9 -9.999 -99.9 -99.99 -9.99
2019/08/16 12:12 EDT    2.67   3.52    9  100   11  71.8  73.4 1017.7 -9.9 -9.999 -99.9 -99.99 -9.99
2019/08/16 12:18 EDT    2.57   3.42    8  106   11  72.0  73.4 1017.6 -9.9 -9.999 -99.9 -99.99 -9.99
2019/08/16 12:24 EDT    2.47   3.31    8  119   11  72.1  73.4 1017.7 -9.9 -9.999 -99.9 -99.99 -9.99
2019/08/16 12:30 EDT    2.37   3.22    7  126   10  72.1  73.6 1017.7 -9.9 -9.999 -99.9 -99.99 -9.99
2019/08/16 12:36 EDT    2.28   3.13    9  109   11  72.3  73.6 1017.7 -9.9 -9.999 -99.9 -99.99 -9.99
2019/08/16 12:42 EDT    2.18   3.02    9  115   11  72.3  73.6 1017.6 -9.9 -9.999 -99.9 -99.99 -9.99
2019/08/16 12:48 EDT    2.08   2.93    8  138   11  72.3  73.8 1017.6 -9.9 -9.999 -99.9 -99.99 -9.99
2019/08/16 12:54 EDT    1.99   2.82    9  112   12  72.7  73.8 1017.6 -9.9 -9.999 -99.9 -99.99 -9.99
2019/08/16 13:00 EDT    1.89   2.75    9  114   12  72.9  73.9 1017.5 -9.9 -9.999 -99.9 -99.99 -9.99
2019/08/16 13:06 EDT    1.80   2.67    9  117   12  72.9  74.1 1017.5 -9.9 -9.999 -99.9 -99.99 -9.99
2019/08/16 13:12 EDT    1.71   2.58    9  116   13  72.9  74.3 1017.6 -9.9 -9.999 -99.9 -99.99 -9.99
2019/08/16 13:18 EDT    1.62   2.49    9  128   11  73.0  74.5 1017.7 -9.9 -9.999 -99.9 -99.99 -9.99
2019/08/16 13:24 EDT    1.53   2.44    9  132   12  73.2  74.7 1017.6 -9.9 -9.999 -99.9 -99.99 -9.99
2019/08/16 13:30 EDT    1.45   2.36    9  116   11  73.2  74.7 1017.7 -9.9 -9.999 -99.9 -99.99 -9.99
2019/08/16 13:36 EDT    1.36   2.28    7  129   11  73.0  74.8 1017.8 -9.9 -9.999 -99.9 -99.99 -9.99
2019/08/16 13:42 EDT    1.28   2.20    9  112   10  73.6  74.8 1017.8 -9.9 -9.999 -99.9 -99.99 -9.99
2019/08/16 13:48 EDT    1.20   2.13    9  123   11  73.4  74.8 1017.8 -9.9 -9.999 -99.9 -99.99 -9.99
2019/08/16 13:54 EDT    1.12   2.02    6  123   11  73.2  75.2 1017.8 -9.9 -9.999 -99.9 -99.99 -9.99
2019/08/16 14:00 EDT    1.05   1.95    9  116   11  73.9  75.0 1017.8 -9.9 -9.999 -99.9 -99.99 -9.99
2019/08/16 14:06 EDT    0.98   1.87    8  109   11  73.9  75.0 1017.8 -9.9 -9.999 -99.9 -99.99 -9.99
2019/08/16 14:12 EDT    0.91   1.77    8  128   11  73.9  75.0 1017.7 -9.9 -9.999 -99.9 -99.99 -9.99
2019/08/16 14:18 EDT    0.85   1.68   10  122   11  73.9  74.7 1017.7 -9.9 -9.999 -99.9 -99.99 -9.99
2019/08/16 14:24 EDT    0.78   1.61    8  134   11  73.4  74.1 1017.6 -9.9 -9.999 -99.9 -99.99 -9.99
2019/08/16 14:30 EDT    0.73   1.53    9  130   13  73.9  74.1 1017.6 -9.9 -9.999 -99.9 -99.99 -9.99
2019/08/16 14:36 EDT    0.68   1.46    8  133   11  73.9  74.1 1017.6 -9.9 -9.999 -99.9 -99.99 -9.99
2019/08/16 14:42 EDT    0.63   1.38    9  107   11  74.3  73.9 1017.6 -9.9 -9.999 -99.9 -99.99 -9.99
2019/08/16 14:48 EDT    0.59   1.33    9  119   11  74.5  73.9 1017.5 -9.9 -9.999 -99.9 -99.99 -9.99
2019/08/16 14:54 EDT    0.56   1.28    8  117   11  74.7  73.9 1017.4 -9.9 -9.999 -99.9 -99.99 -9.99
2019/08/16 15:00 EDT    0.53   1.25    8  132   11  74.7  73.8 1017.4 -9.9 -9.999 -99.9 -99.99 -9.99
2019/08/16 15:06 EDT    0.50   1.21    9  127   12  74.5  73.8 1017.4 -9.9 -9.999 -99.9 -99.99 -9.99
2019/08/16 15:12 EDT    0.49   1.17    9  133   11  74.3  73.8 1017.3 -9.9 -9.999 -99.9 -99.99 -9.99
2019/08/16 15:18 EDT    0.48   1.19   10  140   12  74.7  73.8 1017.3 -9.9 -9.999 -99.9 -99.99 -9.99
2019/08/16 15:24 EDT    0.48   1.17   10  145   12  75.0  73.8 1017.2 -9.9 -9.999 -99.9 -99.99 -9.99
2019/08/16 15:30 EDT    0.49   1.16    8  132   11  75.2  73.8 1017.2 -9.9 -9.999 -99.9 -99.99 -9.99
2019/08/16 15:36 EDT    0.50   1.19    9  132   12  75.2  73.8 1017.2 -9.9 -9.999 -99.9 -99.99 -9.99
2019/08/16 15:42 EDT    0.52   1.22   10  128   12  74.7  73.6 1017.2 -9.9 -9.999 -99.9 -99.99 -9.99
2019/08/16 15:48 EDT    0.55   1.21   11  122   13  75.0  73.6 1017.1 -9.9 -9.999 -99.9 -99.99 -9.99
2019/08/16 15:54 EDT    0.59   1.22   10  123   14  75.2  73.6 1017.0 -9.9 -9.999 -99.9 -99.99 -9.99
2019/08/16 16:00 EDT    0.63   1.29   12  138   14  75.2  73.6 1017.0 -9.9 -9.999 -99.9 -99.99 -9.99
2019/08/16 16:06 EDT    0.69   1.30    9  122   13  74.3  73.8 1017.1 -9.9 -9.999 -99.9 -99.99 -9.99
2019/08/16 16:12 EDT    0.75   1.32    9  128   12  75.0  73.8 1017.0 -9.9 -9.999 -99.9 -99.99 -9.99
2019/08/16 16:18 EDT    0.81   1.35    9  127   12  75.0  73.8 1017.0 -9.9 -9.999 -99.9 -99.99 -9.99
2019/08/16 16:24 EDT    0.89   1.40   10  147   13  75.2  74.5 1016.9 -9.9 -9.999 -99.9 -99.99 -9.99
2019/08/16 16:30 EDT    0.97   1.49   10  138   13  75.4  74.3 1016.9 -9.9 -9.999 -99.9 -99.99 -9.99
2019/08/16 16:36 EDT    1.05   1.55   10  129   12  75.7  74.1 1016.7 -9.9 -9.999 -99.9 -99.99 -9.99
2019/08/16 16:42 EDT    1.15   1.60    9  121   11  75.6  74.3 1016.7 -9.9 -9.999 -99.9 -99.99 -9.99
2019/08/16 16:48 EDT    1.25   1.73   10  121   12  75.4  75.6 1016.7 -9.9 -9.999 -99.9 -99.99 -9.99
2019/08/16 16:54 EDT    1.35   1.79   10  127   14  74.8  75.9 1016.8 -9.9 -9.999 -99.9 -99.99 -9.99
2019/08/16 17:00 EDT    1.46   1.96   10  116   12  73.9  75.7 1016.8 -9.9 -9.999 -99.9 -99.99 -9.99
2019/08/16 17:06 EDT    1.57   2.08   10  106   13  73.8  74.7 1016.7 -9.9 -9.999 -99.9 -99.99 -9.99
2019/08/16 17:12 EDT    1.68   2.19    9  113   12  74.1  75.6 1016.5 -9.9 -9.999 -99.9 -99.99 -9.99
2019/08/16 17:18 EDT    1.80   2.34    6  116   11  74.7  75.9 1016.5 -9.9 -9.999 -99.9 -99.99 -9.99
2019/08/16 17:24 EDT    1.92   2.47    8  114   11  75.0  75.9 1016.5 -9.9 -9.999 -99.9 -99.99 -9.99
2019/08/16 17:30 EDT    2.05   2.60    8  104   11  74.7  75.9 1016.4 -9.9 -9.999 -99.9 -99.99 -9.99
2019/08/16 17:36 EDT    2.17   2.76    7  106   11  74.3  75.9 1016.4 -9.9 -9.999 -99.9 -99.99 -9.99
2019/08/16 17:42 EDT    2.30   2.87    8  117   11  74.5  75.7 1016.4 -9.9 -9.999 -99.9 -99.99 -9.99
2019/08/16 17:48 EDT    2.42   3.01    6  115   10  74.8  75.6 1016.3 -9.9 -9.999 -99.9 -99.99 -9.99
2019/08/16 17:54 EDT    2.55   3.18    8  107   10  74.7  75.6 1016.3 -9.9 -9.999 -99.9 -99.99 -9.99
2019/08/16 18:00 EDT    2.68   3.30    8  118    9  74.1  75.4 1016.1 -9.9 -9.999 -99.9 -99.99 -9.99
2019/08/16 18:06 EDT    2.80   3.45    7  136    9  74.3  75.4 1016.1 -9.9 -9.999 -99.9 -99.99 -9.99
2019/08/16 18:12 EDT    2.93   3.59    7  128    9  74.1  75.4 1016.2 -9.9 -9.999 -99.9 -99.99 -9.99
2019/08/16 18:18 EDT    3.05   3.74    7  123    9  74.5  75.6 1016.1 -9.9 -9.999 -99.9 -99.99 -9.99
2019/08/16 18:24 EDT    3.17   3.89    7  133    9  74.3  75.7 1016.1 -9.9 -9.999 -99.9 -99.99 -9.99
2019/08/16 18:30 EDT    3.30   4.02    6  129   11  74.3  75.7 1016.2 -9.9 -9.999 -99.9 -99.99 -9.99
2019/08/16 18:36 EDT    3.41   4.17    6  124   10  74.3  75.9 1016.3 -9.9 -9.999 -99.9 -99.99 -9.99
2019/08/16 18:42 EDT    3.53   4.29    8  131   10  73.9  76.1 1016.4 -9.9 -9.999 -99.9 -99.99 -9.99
2019/08/16 18:48 EDT    3.65   4.41    6  119   10  73.8  76.1 1016.3 -9.9 -9.999 -99.9 -99.99 -9.99
2019/08/16 18:54 EDT    3.76   4.52    8  122   10  73.9  76.1 1016.2 -9.9 -9.999 -99.9 -99.99 -9.99
2019/08/16 19:00 EDT    3.87   4.63    8  130   11  73.8  76.1 1016.2 -9.9 -9.999 -99.9 -99.99 -9.99
2019/08/16 19:06 EDT    3.98   4.74    7  134   10  73.8  76.1 1016.2 -9.9 -9.999 -99.9 -99.99 -9.99
2019/08/16 19:12 EDT    4.08   4.84    8  138   12  73.8  76.1 1016.2 -9.9 -9.999 -99.9 -99.99 -9.99
2019/08/16 19:18 EDT    4.18   4.93    8  127   11  73.6  76.1 1016.1 -9.9 -9.999 -99.9 -99.99 -9.99
2019/08/16 19:24 EDT    4.28   5.05    8  135   12  73.4  76.1 1016.0 -9.9 -9.999 -99.9 -99.99 -9.99
2019/08/16 19:30 EDT    4.37   5.15    8  126   10  73.4  76.1 1016.2 -9.9 -9.999 -99.9 -99.99 -9.99
2019/08/16 19:36 EDT    4.47   5.22    7  122   10  73.2  75.9 1016.1 -9.9 -9.999 -99.9 -99.99 -9.99
2019/08/16 19:42 EDT    4.55   5.34    7  126    9  73.2  75.9 1016.0 -9.9 -9.999 -99.9 -99.99 -9.99
2019/08/16 19:48 EDT    4.64   5.42    6  124   10  73.0  76.1 1016.1 -9.9 -9.999 -99.9 -99.99 -9.99
2019/08/16 19:54 EDT    4.72   5.48    6  125    9  73.0  75.9 1016.2 -9.9 -9.999 -99.9 -99.99 -9.99
2019/08/16 20:00 EDT    4.80   5.56    6  127   10  73.0  75.7 1016.1 -9.9 -9.999 -99.9 -99.99 -9.99
2019/08/16 20:06 EDT    4.87   5.63    5  127    9  73.0  75.4 1016.2 -9.9 -9.999 -99.9 -99.99 -9.99
2019/08/16 20:12 EDT    4.94   5.69    7  121    9  73.0  75.4 1016.2 -9.9 -9.999 -99.9 -99.99 -9.99
2019/08/16 20:18 EDT    5.01   5.73    5  124    9  73.0  75.4 1016.0 -9.9 -9.999 -99.9 -99.99 -9.99
2019/08/16 20:24 EDT    5.07   5.80    4  120    8  73.0  75.2 1016.2 -9.9 -9.999 -99.9 -99.99 -9.99
2019/08/16 20:30 EDT    5.12   5.85    5  113    9  73.0  75.2 1016.3 -9.9 -9.999 -99.9 -99.99 -9.99
2019/08/16 20:36 EDT    5.17   5.88    6  119    7  73.0  75.2 1016.3 -9.9 -9.999 -99.9 -99.99 -9.99
2019/08/16 20:42 EDT    5.22   5.89    5  114    9  73.0  75.4 1016.2 -9.9 -9.999 -99.9 -99.99 -9.99
2019/08/16 20:48 EDT    5.26   5.91    6  115    8  73.0  75.2 1016.2 -9.9 -9.999 -99.9 -99.99 -9.99
2019/08/16 20:54 EDT    5.30   5.91    7  108   10  73.0  75.0 1016.2 -9.9 -9.999 -99.9 -99.99 -9.99
2019/08/16 21:00 EDT    5.33   5.91    7  110   10  72.9  74.8 1016.2 -9.9 -9.999 -99.9 -99.99 -9.99
2019/08/16 21:06 EDT    5.35   5.91    7  111    9  73.0  74.7 1016.1 -9.9 -9.999 -99.9 -99.99 -9.99
2019/08/16 21:12 EDT    5.37   5.90    6  115   10  72.9  74.5 1016.1 -9.9 -9.999 -99.9 -99.99 -9.99
2019/08/16 21:18 EDT    5.38   5.89    7  120   10  73.0  74.3 1016.3 -9.9 -9.999 -99.9 -99.99 -9.99
2019/08/16 21:24 EDT    5.38   5.89    8  120   11  72.9  74.3 1016.3 -9.9 -9.999 -99.9 -99.99 -9.99
2019/08/16 21:30 EDT    5.38   5.91    6  125    8  73.0  74.3 1016.3 -9.9 -9.999 -99.9 -99.99 -9.99
2019/08/16 21:36 EDT    5.37   5.87    6  113    9  73.0  74.3 1016.5 -9.9 -9.999 -99.9 -99.99 -9.99
2019/08/16 21:42 EDT    5.36   5.88    6  116    9  73.0  74.1 1016.6 -9.9 -9.999 -99.9 -99.99 -9.99
2019/08/16 21:48 EDT    5.33   5.88    6  124    9  73.0  74.1 1016.6 -9.9 -9.999 -99.9 -99.99 -9.99
2019/08/16 21:54 EDT    5.30   5.85    6  115    9  73.0  74.1 1016.7 -9.9 -9.999 -99.9 -99.99 -9.99
2019/08/16 22:00 EDT    5.27   5.79    5  105    7  73.0  74.1 1016.7 -9.9 -9.999 -99.9 -99.99 -9.99
2019/08/16 22:06 EDT    5.22   5.78    5  105    6  73.0  74.1 1016.8 -9.9 -9.999 -99.9 -99.99 -9.99
2019/08/16 22:12 EDT    5.18   5.74    5  108    7  73.0  74.1 1016.9 -9.9 -9.999 -99.9 -99.99 -9.99
2019/08/16 22:18 EDT    5.12   5.66    4  108    6  73.2  74.1 1016.9 -9.9 -9.999 -99.9 -99.99 -9.99
2019/08/16 22:24 EDT    5.06   5.61    4  113    6  73.2  74.3 1017.1 -9.9 -9.999 -99.9 -99.99 -9.99
2019/08/16 22:30 EDT    4.99   5.56    5  113    6  73.2  74.3 1017.1 -9.9 -9.999 -99.9 -99.99 -9.99
2019/08/16 22:36 EDT    4.91   5.47    4  104    6  73.2  74.3 1017.1 -9.9 -9.999 -99.9 -99.99 -9.99
2019/08/16 22:42 EDT    4.83   5.45    5  113    8  73.4  74.3 1017.2 -9.9 -9.999 -99.9 -99.99 -9.99
2019/08/16 22:48 EDT    4.75   5.35    6  104    8  73.4  74.3 1017.2 -9.9 -9.999 -99.9 -99.99 -9.99
2019/08/16 22:54 EDT    4.66   5.27    3  183    5  73.4  74.5 1017.2 -9.9 -9.999 -99.9 -99.99 -9.99
2019/08/16 23:00 EDT    4.56   5.20    3  165    7  73.4  74.5 1017.3 -9.9 -9.999 -99.9 -99.99 -9.99
2019/08/16 23:06 EDT    4.46   5.14    4  131    6  73.4  74.5 1017.3 -9.9 -9.999 -99.9 -99.99 -9.99
2019/08/16 23:12 EDT    4.36   5.03    4  137    7  73.6  74.5 1017.3 -9.9 -9.999 -99.9 -99.99 -9.99
2019/08/16 23:18 EDT    4.26   4.93    4  135    5  73.6  74.5 1017.3 -9.9 -9.999 -99.9 -99.99 -9.99
2019/08/16 23:24 EDT    4.15   4.84    5   86    8  73.6  74.5 1017.4 -9.9 -9.999 -99.9 -99.99 -9.99
2019/08/16 23:30 EDT    4.04   4.72    5  124    8  73.8  74.5 1017.3 -9.9 -9.999 -99.9 -99.99 -9.99
2019/08/16 23:36 EDT    3.92   4.62    2  111    6  73.8  74.7 1017.3 -9.9 -9.999 -99.9 -99.99 -9.99
2019/08/16 23:42 EDT    3.81   4.51    4   99    5  73.8  74.7 1017.2 -9.9 -9.999 -99.9 -99.99 -9.99
2019/08/16 23:48 EDT    3.69   4.40    4  100    8  73.6  74.7 1017.2 -9.9 -9.999 -99.9 -99.99 -9.99
2019/08/16 23:54 EDT    3.57   4.29    5  103    7  73.6  74.7 1017.0 -9.9 -9.999 -99.9 -99.99 -9.99
2019/08/17 00:00 EDT    3.45   4.15    7  113   10  73.6  74.7 1017.0 -9.9 -9.999 -99.9 -99.99 -9.99
2019/08/17 00:06 EDT    3.33   4.04    5  104    8  73.6  74.8 1017.0 -9.9 -9.999 -99.9 -99.99 -9.99
2019/08/17 00:12 EDT    3.21   3.94    6   98    8  73.6  74.8 1017.0 -9.9 -9.999 -99.9 -99.99 -9.99
2019/08/17 00:18 EDT    3.09   3.80    6  106    8  73.6  74.8 1017.0 -9.9 -9.999 -99.9 -99.99 -9.99
2019/08/17 00:24 EDT    2.97   3.68    5  113    8  73.4  74.8 1017.1 -9.9 -9.999 -99.9 -99.99 -9.99
2019/08/17 00:30 EDT    2.86   3.58    5  108    6  73.4  74.8 1017.1 -9.9 -9.999 -99.9 -99.99 -9.99
2019/08/17 00:36 EDT    2.74   3.45    5  108    7  73.4  74.8 1017.1 -9.9 -9.999 -99.9 -99.99 -9.99
2019/08/17 00:42 EDT    2.62   3.32    4  112    6  73.4  75.0 1017.1 -9.9 -9.999 -99.9 -99.99 -9.99
2019/08/17 00:48 EDT    2.50   3.23    5  105    7  73.6  75.0 1017.1 -9.9 -9.999 -99.9 -99.99 -9.99
2019/08/17 00:54 EDT    2.39   3.14    5  103    7  73.4  75.0 1017.1 -9.9 -9.999 -99.9 -99.99 -9.99
2019/08/17 01:00 EDT    2.27   3.02    5  111    7  73.2  75.0 1017.0 -9.9 -9.999 -99.9 -99.99 -9.99
2019/08/17 01:06 EDT    2.16   2.92    5  107    8  73.2  75.0 1017.1 -9.9 -9.999 -99.9 -99.99 -9.99
2019/08/17 01:12 EDT    2.05   2.83    5  107    8  73.2  75.0 1017.0 -9.9 -9.999 -99.9 -99.99 -9.99
2019/08/17 01:18 EDT    1.93   2.74    5  105    7  73.2  75.0 1017.0 -9.9 -9.999 -99.9 -99.99 -9.99
2019/08/17 01:24 EDT    1.83   2.64    6  109    8  73.2  74.8 1016.9 -9.9 -9.999 -99.9 -99.99 -9.99
2019/08/17 01:30 EDT    1.72   2.55    6  103    8  73.2  75.0 1016.8 -9.9 -9.999 -99.9 -99.99 -9.99
2019/08/17 01:36 EDT    1.61   2.45    5  104    8  73.2  75.0 1016.9 -9.9 -9.999 -99.9 -99.99 -9.99
2019/08/17 01:42 EDT    1.51   2.38    6   95    7  73.2  75.0 1016.9 -9.9 -9.999 -99.9 -99.99 -9.99
2019/08/17 01:48 EDT    1.40   2.29    4   94    8  73.2  75.0 1016.9 -9.9 -9.999 -99.9 -99.99 -9.99
2019/08/17 01:54 EDT    1.30   2.19    5   92    8  73.2  75.0 1016.9 -9.9 -9.999 -99.9 -99.99 -9.99
2019/08/17 02:00 EDT    1.21   2.09    4   85    6  73.2  75.0 1016.9 -9.9 -9.999 -99.9 -99.99 -9.99
2019/08/17 02:06 EDT    1.11   2.02    5   88    7  73.2  75.0 1016.9 -9.9 -9.999 -99.9 -99.99 -9.99
2019/08/17 02:12 EDT    1.02   1.91    4   79    7  73.2  75.0 1016.8 -9.9 -9.999 -99.9 -99.99 -9.99
2019/08/17 02:18 EDT    0.93   1.81    4   65    6  73.2  75.0 1016.9 -9.9 -9.999 -99.9 -99.99 -9.99
2019/08/17 02:24 EDT    0.84   1.73    4   68    7  73.2  75.0 1016.9 -9.9 -9.999 -99.9 -99.99 -9.99
2019/08/17 02:30 EDT    0.76   1.64    4   74    6  73.2  75.0 1017.0 -9.9 -9.999 -99.9 -99.99 -9.99
2019/08/17 02:36 EDT    0.68   1.54    4   77    6  73.2  75.0 1017.0 -9.9 -9.999 -99.9 -99.99 -9.99
2019/08/17 02:42 EDT    0.60   1.46    5   74    6  73.2  75.0 1017.0 -9.9 -9.999 -99.9 -99.99 -9.99
2019/08/17 02:48 EDT    0.53   1.39    4   69    6  73.2  75.0 1016.9 -9.9 -9.999 -99.9 -99.99 -9.99
2019/08/17 02:54 EDT    0.47   1.30    6   59    8  73.2  75.0 1016.9 -9.9 -9.999 -99.9 -99.99 -9.99
2019/08/17 03:00 EDT    0.40   1.22    4   66    6  73.0  75.0 1016.9 -9.9 -9.999 -99.9 -99.99 -9.99
2019/08/17 03:06 EDT    0.35   1.17    6   79    8  73.0  75.0 1016.9 -9.9 -9.999 -99.9 -99.99 -9.99
2019/08/17 03:12 EDT    0.30   1.12    4   68    6  73.0  74.8 1016.9 -9.9 -9.999 -99.9 -99.99 -9.99
2019/08/17 03:18 EDT    0.26   1.06    4   68    5  73.0  74.8 1016.9 -9.9 -9.999 -99.9 -99.99 -9.99
2019/08/17 03:24 EDT    0.22   1.01    5   68    7  73.0  74.8 1016.9 -9.9 -9.999 -99.9 -99.99 -9.99
2019/08/17 03:30 EDT    0.19   0.96    5   75    7  73.2  74.8 1016.9 -9.9 -9.999 -99.9 -99.99 -9.99
2019/08/17 03:36 EDT    0.17   0.92    5   96    7  73.0  74.8 1016.7 -9.9 -9.999 -99.9 -99.99 -9.99
2019/08/17 03:42 EDT    0.16   0.90    4   88    6  73.0  74.8 1016.7 -9.9 -9.999 -99.9 -99.99 -9.99
2019/08/17 03:48 EDT    0.15   0.86    5   84    7  73.0  74.8 1016.7 -9.9 -9.999 -99.9 -99.99 -9.99
2019/08/17 03:54 EDT    0.15   0.85    4   80    6  73.0  74.8 1016.8 -9.9 -9.999 -99.9 -99.99 -9.99
2019/08/17 04:00 EDT    0.16   0.85    4   88    5  73.0  75.0 1016.8 -9.9 -9.999 -99.9 -99.99 -9.99
2019/08/17 04:06 EDT    0.17   0.86    4   93    6  72.9  75.0 1016.6 -9.9 -9.999 -99.9 -99.99 -9.99
2019/08/17 04:12 EDT    0.20   0.85    4   92    6  72.9  75.0 1016.6 -9.9 -9.999 -99.9 -99.99 -9.99
2019/08/17 04:18 EDT    0.23   0.89    6   95    9  73.0  74.8 1016.4 -9.9 -9.999 -99.9 -99.99 -9.99
2019/08/17 04:24 EDT    0.27   0.91    6   93    7  73.0  74.7 1016.4 -9.9 -9.999 -99.9 -99.99 -9.99
2019/08/17 04:30 EDT    0.32   0.93    4   94    8  73.0  74.5 1016.3 -9.9 -9.999 -99.9 -99.99 -9.99
2019/08/17 04:36 EDT    0.38   1.00    5   95    7  73.0  74.3 1016.3 -9.9 -9.999 -99.9 -99.99 -9.99
2019/08/17 04:42 EDT    0.44   1.05    4   88    7  73.0  74.3 1016.2 -9.9 -9.999 -99.9 -99.99 -9.99
2019/08/17 04:48 EDT    0.51   1.14    5   75    7  73.0  74.3 1016.3 -9.9 -9.999 -99.9 -99.99 -9.99
2019/08/17 04:54 EDT    0.59   1.22    4   73    7  73.0  74.3 1016.2 -9.9 -9.999 -99.9 -99.99 -9.99
2019/08/17 05:00 EDT    0.67   1.31    5   79    7  73.2  74.3 1016.2 -9.9 -9.999 -99.9 -99.99 -9.99
2019/08/17 05:06 EDT    0.76   1.40    4   78    6  73.2  74.5 1016.2 -9.9 -9.999 -99.9 -99.99 -9.99
2019/08/17 05:12 EDT    0.86   1.50    4   85    6  73.2  74.1 1016.2 -9.9 -9.999 -99.9 -99.99 -9.99
2019/08/17 05:18 EDT    0.96   1.63    3   90    6  73.2  73.9 1016.3 -9.9 -9.999 -99.9 -99.99 -9.99
2019/08/17 05:24 EDT    1.06   1.71    5   79    7  73.2  74.3 1016.3 -9.9 -9.999 -99.9 -99.99 -9.99
2019/08/17 05:30 EDT    1.17   1.82    6   80    7  73.2  74.3 1016.4 -9.9 -9.999 -99.9 -99.99 -9.99
2019/08/17 05:36 EDT    1.28   1.98    5   78    7  73.2  74.3 1016.4 -9.9 -9.999 -99.9 -99.99 -9.99
2019/08/17 05:42 EDT    1.40   2.08    4   75    7  73.2  74.3 1016.5 -9.9 -9.999 -99.9 -99.99 -9.99
2019/08/17 05:48 EDT    1.51   2.20    4   72    6  73.2  74.3 1016.6 -9.9 -9.999 -99.9 -99.99 -9.99
2019/08/17 05:54 EDT    1.63   2.33    3   73    6  73.2  74.3 1016.6 -9.9 -9.999 -99.9 -99.99 -9.99
2019/08/17 06:00 EDT    1.75   2.48    4   76    5  73.2  74.7 1016.7 -9.9 -9.999 -99.9 -99.99 -9.99
2019/08/17 06:06 EDT    1.87   2.58    4   78    5  73.2  74.7 1016.7 -9.9 -9.999 -99.9 -99.99 -9.99
2019/08/17 06:12 EDT    2.00   2.70    3   80    6  73.2  74.5 1016.7 -9.9 -9.999 -99.9 -99.99 -9.99
2019/08/17 06:18 EDT    2.12   2.85    4   98    5  73.2  74.5 1016.8 -9.9 -9.999 -99.9 -99.99 -9.99
2019/08/17 06:24 EDT    2.24   2.97    4   85    6  73.0  74.5 1016.7 -9.9 -9.999 -99.9 -99.99 -9.99
2019/08/17 06:30 EDT    2.36   3.07    4   78    6  73.0  74.5 1016.5 -9.9 -9.999 -99.9 -99.99 -9.99
2019/08/17 06:36 EDT    2.48   3.20    4   84    6  73.0  74.3 1016.5 -9.9 -9.999 -99.9 -99.99 -9.99
2019/08/17 06:42 EDT    2.60   3.35    5   85    7  73.2  74.5 1016.4 -9.9 -9.999 -99.9 -99.99 -9.99
2019/08/17 06:48 EDT    2.72   3.44    4   79    6  73.2  74.5 1016.3 -9.9 -9.999 -99.9 -99.99 -9.99
2019/08/17 06:54 EDT    2.83   3.55    4   79    6  73.2  74.5 1016.2 -9.9 -9.999 -99.9 -99.99 -9.99
2019/08/17 07:00 EDT    2.95   3.69    4   78    8  73.4  74.5 1016.3 -9.9 -9.999 -99.9 -99.99 -9.99
2019/08/17 07:06 EDT    3.06   3.76    5   78    7  73.4  74.5 1016.3 -9.9 -9.999 -99.9 -99.99 -9.99
2019/08/17 07:12 EDT    3.16   3.87    5   82    7  73.4  74.5 1016.2 -9.9 -9.999 -99.9 -99.99 -9.99
2019/08/17 07:18 EDT    3.27   3.97    4   82    8  73.4  74.5 1016.4 -9.9 -9.999 -99.9 -99.99 -9.99
2019/08/17 07:24 EDT    3.37   4.05    5   83    8  73.6  74.5 1016.4 -9.9 -9.999 -99.9 -99.99 -9.99
2019/08/17 07:30 EDT    3.47   4.15    6   81    8  73.6  74.5 1016.4 -9.9 -9.999 -99.9 -99.99 -9.99
2019/08/17 07:36 EDT    3.57   4.20    6   91    8  73.9  74.5 1016.5 -9.9 -9.999 -99.9 -99.99 -9.99
2019/08/17 07:42 EDT    3.66   4.30    6   92    9  74.5  74.5 1016.6 -9.9 -9.999 -99.9 -99.99 -9.99
2019/08/17 07:48 EDT    3.76   4.39    5   78    9  74.8  74.5 1016.6 -9.9 -9.999 -99.9 -99.99 -9.99
2019/08/17 07:54 EDT    3.84   4.45    6   76   10  74.8  74.7 1016.5 -9.9 -9.999 -99.9 -99.99 -9.99
2019/08/17 08:00 EDT    3.93   4.50    6   76    8  75.2  74.7 1016.5 -9.9 -9.999 -99.9 -99.99 -9.99
2019/08/17 08:06 EDT    4.01   4.65    6   76   10  75.4  74.5 1016.6 -9.9 -9.999 -99.9 -99.99 -9.99
2019/08/17 08:12 EDT    4.09   4.70    6   88    8  74.8  74.5 1016.5 -9.9 -9.999 -99.9 -99.99 -9.99
2019/08/17 08:18 EDT    4.16   4.78    6   89    8  74.7  74.5 1016.6 -9.9 -9.999 -99.9 -99.99 -9.99
2019/08/17 08:24 EDT    4.24   4.86    5  100    8  74.5  74.5 1016.6 -9.9 -9.999 -99.9 -99.99 -9.99
2019/08/17 08:30 EDT    4.30   4.92    6   91    8  74.5  74.5 1016.7 -9.9 -9.999 -99.9 -99.99 -9.99
2019/08/17 08:36 EDT    4.37 -99.99 -999 -999 -999 -99.9 -99.9 -999.9 -9.9 -9.999 -99.9 -99.99 -9.99
2019/08/17 08:42 EDT    4.43 -99.99 -999 -999 -999 -99.9 -99.9 -999.9 -9.9 -9.999 -99.9 -99.99 -9.99

Revised: 08/08/2018
NOAA / National Ocean Service
Web site owner: Center for Operational Oceanographic Products and Services